Observation data for Sierra Blanca on 05/25/2019      Previous  Date  Next       Current Mesonet Observations  Soil Data  Daily Summary Page  Observations in Plain Language
KSB1 250500Z 02009KT 23/05 A2997 RMK A01 T02280047  RH  031%=      5-min Rain = 0
KSB1 250501Z 02009KT 23/05 A2997 RMK A01 T02270048  RH  031%=      5-min Rain = 0
KSB1 250502Z 02009KT 23/05 A2997 RMK A01 T02280050  RH  031%=      5-min Rain = 0
KSB1 250503Z 02008KT 23/05 A2997 RMK A01 T02280051  RH  032%=      5-min Rain = 0
KSB1 250504Z 02008KT 23/05 A2997 RMK A01 T02280052  RH  032%=      5-min Rain = 0
KSB1 250505Z 02008KT 23/05 A2997 RMK A01 T02280054  RH  032%=      5-min Rain = 0
KSB1 250506Z 02007KT 23/06 A2998 RMK A01 T02280056  RH  033%=      5-min Rain = 0
KSB1 250507Z 02007KT 23/06 A2998 RMK A01 T02280056  RH  033%=      5-min Rain = 0
KSB1 250508Z 02006KT 23/06 A2998 RMK A01 T02270058  RH  033%=      5-min Rain = 0
KSB1 250509Z 01007KT 23/06 A2998 RMK A01 T02270060  RH  034%=      5-min Rain = 0
KSB1 250510Z 01007KT 23/06 A2998 RMK A01 T02280062  RH  034%=      5-min Rain = 0
KSB1 250511Z 01007KT 23/06 A2998 RMK A01 T02270064  RH  035%=      5-min Rain = 0
KSB1 250512Z 02006KT 23/07 A2998 RMK A01 T02270065  RH  035%=      5-min Rain = 0
KSB1 250513Z 02006KT 23/07 A2998 RMK A01 T02280066  RH  035%=      5-min Rain = 0
KSB1 250514Z 02007KT 23/07 A2998 RMK A01 T02270068  RH  036%=      5-min Rain = 0
KSB1 250515Z 01008KT 23/07 A2998 RMK A01 T02270071  RH  037%=      5-min Rain = 0
KSB1 250516Z 01008KT 23/07 A2998 RMK A01 T02280074  RH  037%=      5-min Rain = 0
KSB1 250517Z 01008KT 23/08 A2998 RMK A01 T02280076  RH  038%=      5-min Rain = 0
KSB1 250518Z 01007KT 23/08 A2998 RMK A01 T02280077  RH  038%=      5-min Rain = 0
KSB1 250519Z 01007KT 23/08 A2998 RMK A01 T02290078  RH  038%=      5-min Rain = 0
KSB1 250520Z 01007KT 23/08 A2998 RMK A01 T02290079  RH  038%=      5-min Rain = 0
KSB1 250521Z 01007KT 23/08 A2998 RMK A01 T02290080  RH  038%=      5-min Rain = 0
KSB1 250522Z 01007KT 23/08 A2998 RMK A01 T02290080  RH  038%=      5-min Rain = 0
KSB1 250523Z 01009KT 23/08 A2998 RMK A01 T02280081  RH  039%=      5-min Rain = 0
KSB1 250524Z 01009KT 23/08 A2998 RMK A01 T02280082  RH  039%=      5-min Rain = 0
KSB1 250525Z 01009KT 23/08 A2998 RMK A01 T02290083  RH  039%=      5-min Rain = 0
KSB1 250526Z 01009KT 23/08 A2998 RMK A01 T02280082  RH  039%=      5-min Rain = 0
KSB1 250527Z 01008KT 23/08 A2998 RMK A01 T02280083  RH  039%=      5-min Rain = 0
KSB1 250528Z 00007KT 23/08 A2998 RMK A01 T02280084  RH  039%=      5-min Rain = 0
KSB1 250529Z 00008KT 23/08 A2998 RMK A01 T02290084  RH  040%=      5-min Rain = 0
KSB1 250530Z 01008KT 23/08 A2998 RMK A01 T02290084  RH  040%=      5-min Rain = 0
KSB1 250531Z 01007KT 23/08 A2998 RMK A01 T02290083  RH  039%=      5-min Rain = 0
KSB1 250532Z 02007KT 23/08 A2998 RMK A01 T02300082  RH  039%=      5-min Rain = 0
KSB1 250533Z 02007KT 23/08 A2998 RMK A01 T02300081  RH  038%=      5-min Rain = 0
KSB1 250534Z 02006KT 23/08 A2998 RMK A01 T02300080  RH  038%=      5-min Rain = 0
KSB1 250535Z 02006KT 23/08 A2998 RMK A01 T02300080  RH  038%=      5-min Rain = 0
KSB1 250536Z 02006KT 23/08 A2998 RMK A01 T02300080  RH  038%=      5-min Rain = 0
KSB1 250537Z 02005KT 23/08 A2998 RMK A01 T02290079  RH  038%=      5-min Rain = 0
KSB1 250538Z 02005KT 23/08 A2998 RMK A01 T02280078  RH  038%=      5-min Rain = 0
KSB1 250539Z 02006KT 23/08 A2998 RMK A01 T02270078  RH  038%=      5-min Rain = 0
KSB1 250540Z 02006KT 23/08 A2998 RMK A01 T02270077  RH  038%=      5-min Rain = 0
KSB1 250541Z 02005KT 23/08 A2997 RMK A01 T02260077  RH  038%=      5-min Rain = 0
KSB1 250542Z 02005KT 23/08 A2997 RMK A01 T02270077  RH  038%=      5-min Rain = 0
KSB1 250543Z 02004KT 23/08 A2997 RMK A01 T02260077  RH  038%=      5-min Rain = 0
KSB1 250544Z 02005KT 23/08 A2997 RMK A01 T02260077  RH  038%=      5-min Rain = 0
KSB1 250545Z 02005KT 23/08 A2997 RMK A01 T02250077  RH  039%=      5-min Rain = 0
KSB1 250546Z 02005KT 23/08 A2997 RMK A01 T02250077  RH  039%=      5-min Rain = 0
KSB1 250547Z 01005KT 22/08 A2997 RMK A01 T02240077  RH  039%=      5-min Rain = 0
KSB1 250548Z 01006KT 22/08 A2997 RMK A01 T02230077  RH  039%=      5-min Rain = 0
KSB1 250549Z 01005KT 22/08 A2997 RMK A01 T02230077  RH  039%=      5-min Rain = 0
KSB1 250550Z 01005KT 22/08 A2997 RMK A01 T02230077  RH  039%=      5-min Rain = 0
KSB1 250551Z 00005KT 22/08 A2997 RMK A01 T02220077  RH  039%=      5-min Rain = 0
KSB1 250552Z 00006KT 22/08 A2997 RMK A01 T02220077  RH  039%=      5-min Rain = 0
KSB1 250553Z 00006KT 22/08 A2997 RMK A01 T02210077  RH  039%=      5-min Rain = 0
KSB1 250554Z 00006KT 22/08 A2997 RMK A01 T02210077  RH  040%=      5-min Rain = 0
KSB1 250555Z 01006KT 22/08 A2997 RMK A01 T02210078  RH  040%=      5-min Rain = 0
KSB1 250556Z 01006KT 22/08 A2997 RMK A01 T02210078  RH  040%=      5-min Rain = 0
KSB1 250557Z 01007KT 22/08 A2997 RMK A01 T02210078  RH  040%=      5-min Rain = 0
KSB1 250558Z 01007KT 22/08 A2997 RMK A01 T02200078  RH  040%=      5-min Rain = 0
KSB1 250559Z 36007KT 22/08 A2997 RMK A01 T02210078  RH  040%=      5-min Rain = 0
KSB1 250600Z 00008KT 22/08 A2997 RMK A01 T02200078  RH  040%=      5-min Rain = 0
KSB1 250601Z 01008KT 22/08 A2997 RMK A01 T02200079  RH  040%=      5-min Rain = 0
KSB1 250602Z 00008KT 22/08 A2997 RMK A01 T02200079  RH  040%=      5-min Rain = 0
KSB1 250603Z 00007KT 22/08 A2997 RMK A01 T02200080  RH  040%=      5-min Rain = 0
KSB1 250604Z 00008KT 22/08 A2997 RMK A01 T02190080  RH  041%=      5-min Rain = 0
KSB1 250605Z 00008KT 22/08 A2997 RMK A01 T02190081  RH  041%=      5-min Rain = 0
KSB1 250606Z 00007KT 22/08 A2997 RMK A01 T02190082  RH  041%=      5-min Rain = 0
KSB1 250607Z 01007KT 22/08 A2997 RMK A01 T02190082  RH  042%=      5-min Rain = 0
KSB1 250608Z 00006KT 22/08 A2997 RMK A01 T02190083  RH  042%=      5-min Rain = 0
KSB1 250609Z 36006KT 22/08 A2997 RMK A01 T02190084  RH  042%=      5-min Rain = 0
KSB1 250610Z 35005KT 22/08 A2997 RMK A01 T02190084  RH  042%=      5-min Rain = 0
KSB1 250611Z 35005KT 22/08 A2997 RMK A01 T02180083  RH  042%=      5-min Rain = 0
KSB1 250612Z 35005KT 22/08 A2997 RMK A01 T02170082  RH  042%=      5-min Rain = 0
KSB1 250613Z 35005KT 22/08 A2997 RMK A01 T02170081  RH  042%=      5-min Rain = 0
KSB1 250614Z 35005KT 22/08 A2997 RMK A01 T02170080  RH  042%=      5-min Rain = 0
KSB1 250615Z 36006KT 22/08 A2997 RMK A01 T02170079  RH  041%=      5-min Rain = 0
KSB1 250616Z 36006KT 22/08 A2997 RMK A01 T02160078  RH  041%=      5-min Rain = 0
KSB1 250617Z 00006KT 22/08 A2997 RMK A01 T02170078  RH  041%=      5-min Rain = 0
KSB1 250618Z 36005KT 22/08 A2997 RMK A01 T02170078  RH  041%=      5-min Rain = 0
KSB1 250619Z 00006KT 22/08 A2997 RMK A01 T02180079  RH  041%=      5-min Rain = 0
KSB1 250620Z 01006KT 22/08 A2997 RMK A01 T02180078  RH  041%=      5-min Rain = 0
KSB1 250621Z 00006KT 22/08 A2997 RMK A01 T02180078  RH  041%=      5-min Rain = 0
KSB1 250622Z 00006KT 22/08 A2996 RMK A01 T02180078  RH  041%=      5-min Rain = 0
KSB1 250623Z 00007KT 22/08 A2996 RMK A01 T02180079  RH  041%=      5-min Rain = 0
KSB1 250624Z 00006KT 22/08 A2996 RMK A01 T02180079  RH  041%=      5-min Rain = 0
KSB1 250625Z 00006KT 22/08 A2996 RMK A01 T02180079  RH  041%=      5-min Rain = 0
KSB1 250626Z 00006KT 22/08 A2996 RMK A01 T02180079  RH  041%=      5-min Rain = 0
KSB1 250627Z 00006KT 22/08 A2996 RMK A01 T02180080  RH  041%=      5-min Rain = 0
KSB1 250628Z 36006KT 22/08 A2996 RMK A01 T02180081  RH  041%=      5-min Rain = 0
KSB1 250629Z 35006KT 22/08 A2996 RMK A01 T02190082  RH  041%=      5-min Rain = 0
KSB1 250630Z 35006KT 22/08 A2996 RMK A01 T02190083  RH  041%=      5-min Rain = 0
KSB1 250631Z 35006KT 22/08 A2997 RMK A01 T02210084  RH  041%=      5-min Rain = 0
KSB1 250632Z 35006KT 22/08 A2996 RMK A01 T02210083  RH  041%=      5-min Rain = 0
KSB1 250633Z 35005KT 22/08 A2996 RMK A01 T02220084  RH  041%=      5-min Rain = 0
KSB1 250634Z 36005KT 22/09 A2996 RMK A01 T02220085  RH  041%=      5-min Rain = 0
KSB1 250635Z 36005KT 22/09 A2996 RMK A01 T02220086  RH  042%=      5-min Rain = 0
KSB1 250636Z 35005KT 22/09 A2996 RMK A01 T02220086  RH  042%=      5-min Rain = 0
KSB1 250637Z 34005KT 22/09 A2996 RMK A01 T02230087  RH  042%=      5-min Rain = 0
KSB1 250638Z 34006KT 22/09 A2996 RMK A01 T02230087  RH  042%=      5-min Rain = 0
KSB1 250639Z 33006KT 22/09 A2996 RMK A01 T02230087  RH  042%=      5-min Rain = 0
KSB1 250640Z 33007KT 22/09 A2997 RMK A01 T02230087  RH  042%=      5-min Rain = 0
KSB1 250641Z 33007KT 22/09 A2996 RMK A01 T02230088  RH  042%=      5-min Rain = 0
KSB1 250642Z 33006KT 22/09 A2996 RMK A01 T02230088  RH  042%=      5-min Rain = 0
KSB1 250643Z 33006KT 22/09 A2996 RMK A01 T02230090  RH  042%=      5-min Rain = 0
KSB1 250644Z 33006KT 22/09 A2996 RMK A01 T02240090  RH  042%=      5-min Rain = 0
KSB1 250645Z 34005KT 23/09 A2996 RMK A01 T02250091  RH  042%=      5-min Rain = 0
KSB1 250646Z 35005KT 23/09 A2996 RMK A01 T02260091  RH  042%=      5-min Rain = 0
KSB1 250647Z 35005KT 23/09 A2996 RMK A01 T02250091  RH  042%=      5-min Rain = 0
KSB1 250648Z 36005KT 23/09 A2996 RMK A01 T02260091  RH  042%=      5-min Rain = 0
KSB1 250649Z 36005KT 23/09 A2996 RMK A01 T02260092  RH  042%=      5-min Rain = 0
KSB1 250650Z 00005KT 23/09 A2996 RMK A01 T02250092  RH  043%=      5-min Rain = 0
KSB1 250651Z 36005KT 22/09 A2996 RMK A01 T02240091  RH  043%=      5-min Rain = 0
KSB1 250652Z 36005KT 22/09 A2996 RMK A01 T02230090  RH  043%=      5-min Rain = 0
KSB1 250653Z 36005KT 22/09 A2996 RMK A01 T02220090  RH  043%=      5-min Rain = 0
KSB1 250654Z 00005KT 22/09 A2996 RMK A01 T02220090  RH  043%=      5-min Rain = 0
KSB1 250655Z 00005KT 22/09 A2996 RMK A01 T02210090  RH  043%=      5-min Rain = 0
KSB1 250656Z 00005KT 22/09 A2996 RMK A01 T02210089  RH  043%=      5-min Rain = 0
KSB1 250657Z 36005KT 22/09 A2996 RMK A01 T02200089  RH  043%=      5-min Rain = 0
KSB1 250658Z 35005KT 22/09 A2996 RMK A01 T02200088  RH  043%=      5-min Rain = 0
KSB1 250659Z 35005KT 22/09 A2996 RMK A01 T02200088  RH  043%=      5-min Rain = 0
KSB1 250700Z 34005KT 22/09 A2996 RMK A01 T02210089  RH  043%=      5-min Rain = 0
KSB1 250701Z 34005KT 22/09 A2996 RMK A01 T02210089  RH  043%=      5-min Rain = 0
KSB1 250702Z 34004KT 22/09 A2996 RMK A01 T02220090  RH  043%=      5-min Rain = 0
KSB1 250703Z 34004KT 22/09 A2996 RMK A01 T02220091  RH  043%=      5-min Rain = 0
KSB1 250704Z 34004KT 22/09 A2996 RMK A01 T02220091  RH  043%=      5-min Rain = 0
KSB1 250705Z 34005KT 22/09 A2996 RMK A01 T02230092  RH  043%=      5-min Rain = 0
KSB1 250706Z 35005KT 22/09 A2996 RMK A01 T02230092  RH  043%=      5-min Rain = 0
KSB1 250707Z 35005KT 22/09 A2996 RMK A01 T02230092  RH  043%=      5-min Rain = 0
KSB1 250708Z 35005KT 22/09 A2996 RMK A01 T02230092  RH  043%=      5-min Rain = 0
KSB1 250709Z 35005KT 22/09 A2996 RMK A01 T02230092  RH  043%=      5-min Rain = 0
KSB1 250710Z 35005KT 22/09 A2996 RMK A01 T02230092  RH  043%=      5-min Rain = 0
KSB1 250711Z 35005KT 22/09 A2996 RMK A01 T02230093  RH  043%=      5-min Rain = 0
KSB1 250712Z 35005KT 22/09 A2996 RMK A01 T02240093  RH  043%=      5-min Rain = 0
KSB1 250713Z 34005KT 22/09 A2996 RMK A01 T02240093  RH  043%=      5-min Rain = 0
KSB1 250714Z 35005KT 22/09 A2996 RMK A01 T02230093  RH  044%=      5-min Rain = 0
KSB1 250715Z 35005KT 22/09 A2996 RMK A01 T02230094  RH  044%=      5-min Rain = 0
KSB1 250716Z 35005KT 22/09 A2996 RMK A01 T02230094  RH  044%=      5-min Rain = 0
KSB1 250717Z 00005KT 22/10 A2996 RMK A01 T02240095  RH  044%=      5-min Rain = 0
KSB1 250718Z 36005KT 22/09 A2996 RMK A01 T02230094  RH  044%=      5-min Rain = 0
KSB1 250719Z 36005KT 22/09 A2996 RMK A01 T02230094  RH  044%=      5-min Rain = 0
KSB1 250720Z 01004KT 22/09 A2997 RMK A01 T02220094  RH  044%=      5-min Rain = 0
KSB1 250721Z 00005KT 22/09 A2997 RMK A01 T02200094  RH  044%=      5-min Rain = 0
KSB1 250722Z 01005KT 22/09 A2997 RMK A01 T02200094  RH  045%=      5-min Rain = 0
KSB1 250723Z 36004KT 22/09 A2996 RMK A01 T02190094  RH  045%=      5-min Rain = 0
KSB1 250724Z 01005KT 22/09 A2997 RMK A01 T02190094  RH  045%=      5-min Rain = 0
KSB1 250725Z 01005KT 22/10 A2997 RMK A01 T02190095  RH  045%=      5-min Rain = 0
KSB1 250726Z 01005KT 22/10 A2997 RMK A01 T02200095  RH  045%=      5-min Rain = 0
KSB1 250727Z 01004KT 22/10 A2996 RMK A01 T02210095  RH  045%=      5-min Rain = 0
KSB1 250728Z 01005KT 22/10 A2996 RMK A01 T02200095  RH  045%=      5-min Rain = 0
KSB1 250729Z 01004KT 22/10 A2996 RMK A01 T02200095  RH  045%=      5-min Rain = 0
KSB1 250730Z 01004KT 22/10 A2996 RMK A01 T02200096  RH  045%=      5-min Rain = 0
KSB1 250731Z 01004KT 22/10 A2997 RMK A01 T02200097  RH  045%=      5-min Rain = 0
KSB1 250732Z 03004KT 22/10 A2997 RMK A01 T02200097  RH  045%=      5-min Rain = 0
KSB1 250733Z 02004KT 22/10 A2997 RMK A01 T02200102  RH  047%=      5-min Rain = 0
KSB1 250734Z 00003KT 22/10 A2997 RMK A01 T02200099  RH  046%=      5-min Rain = 0
KSB1 250735Z 02004KT 22/10 A2997 RMK A01 T02200098  RH  046%=      5-min Rain = 0
KSB1 250736Z 01004KT 22/10 A2997 RMK A01 T02190099  RH  046%=      5-min Rain = 0
KSB1 250737Z 01003KT 22/10 A2997 RMK A01 T02180100  RH  047%=      5-min Rain = 0
KSB1 250738Z 00004KT 22/10 A2997 RMK A01 T02180101  RH  047%=      5-min Rain = 0
KSB1 250739Z 00004KT 22/10 A2997 RMK A01 T02180100  RH  047%=      5-min Rain = 0
KSB1 250740Z 01004KT 22/10 A2997 RMK A01 T02180100  RH  047%=      5-min Rain = 0
KSB1 250741Z 01004KT 22/10 A2997 RMK A01 T02180102  RH  047%=      5-min Rain = 0
KSB1 250742Z 01004KT 22/10 A2997 RMK A01 T02180102  RH  048%=      5-min Rain = 0
KSB1 250743Z 02004KT 22/11 A2997 RMK A01 T02190107  RH  049%=      5-min Rain = 0
KSB1 250744Z 01004KT 22/11 A2996 RMK A01 T02200106  RH  048%=      5-min Rain = 0
KSB1 250745Z 02004KT 22/11 A2996 RMK A01 T02210107  RH  048%=      5-min Rain = 0
KSB1 250746Z 00003KT 22/11 A2996 RMK A01 T02210110  RH  049%=      5-min Rain = 0
KSB1 250747Z 00003KT 22/11 A2996 RMK A01 T02220111  RH  049%=      5-min Rain = 0
KSB1 250748Z 01003KT 22/11 A2996 RMK A01 T02220105  RH  047%=      5-min Rain = 0
KSB1 250749Z 35003KT 22/11 A2996 RMK A01 T02220106  RH  048%=      5-min Rain = 0
KSB1 250750Z 35004KT 22/11 A2996 RMK A01 T02220106  RH  048%=      5-min Rain = 0
KSB1 250751Z 36004KT 22/11 A2996 RMK A01 T02210107  RH  048%=      5-min Rain = 0
KSB1 250752Z 35003KT 22/11 A2996 RMK A01 T02210110  RH  049%=      5-min Rain = 0
KSB1 250753Z 36004KT 22/11 A2996 RMK A01 T02210110  RH  049%=      5-min Rain = 0
KSB1 250754Z 01004KT 22/11 A2996 RMK A01 T02210109  RH  049%=      5-min Rain = 0
KSB1 250755Z 01004KT 22/11 A2996 RMK A01 T02220110  RH  049%=      5-min Rain = 0
KSB1 250756Z 02004KT 22/11 A2996 RMK A01 T02210109  RH  049%=      5-min Rain = 0
KSB1 250757Z 02004KT 22/11 A2996 RMK A01 T02200109  RH  049%=      5-min Rain = 0
KSB1 250758Z 02004KT 22/11 A2996 RMK A01 T02200110  RH  050%=      5-min Rain = 0
KSB1 250759Z 02004KT 22/11 A2996 RMK A01 T02190109  RH  050%=      5-min Rain = 0
KSB1 250800Z 03004KT 22/11 A2996 RMK A01 T02190109  RH  050%=      5-min Rain = 0
KSB1 250801Z 02004KT 22/11 A2996 RMK A01 T02180109  RH  050%=      5-min Rain = 0
KSB1 250802Z 03005KT 22/11 A2996 RMK A01 T02170108  RH  050%=      5-min Rain = 0
KSB1 250803Z 02005KT 22/11 A2996 RMK A01 T02160107  RH  050%=      5-min Rain = 0
KSB1 250804Z 02004KT 22/11 A2996 RMK A01 T02160107  RH  050%=      5-min Rain = 0
KSB1 250805Z 02004KT 22/11 A2996 RMK A01 T02150106  RH  050%=      5-min Rain = 0
KSB1 250806Z 01004KT 22/11 A2996 RMK A01 T02150106  RH  050%=      5-min Rain = 0
KSB1 250807Z 00004KT 21/11 A2996 RMK A01 T02140105  RH  050%=      5-min Rain = 0
KSB1 250808Z 36004KT 21/10 A2996 RMK A01 T02120104  RH  050%=      5-min Rain = 0
KSB1 250809Z 35004KT 21/10 A2996 RMK A01 T02110103  RH  050%=      5-min Rain = 0
KSB1 250810Z 35005KT 21/10 A2996 RMK A01 T02090102  RH  050%=      5-min Rain = 0
KSB1 250811Z 00005KT 21/10 A2996 RMK A01 T02080102  RH  050%=      5-min Rain = 0
KSB1 250812Z 36004KT 21/10 A2996 RMK A01 T02070103  RH  051%=      5-min Rain = 0
KSB1 250813Z 36005KT 21/10 A2996 RMK A01 T02080104  RH  051%=      5-min Rain = 0
KSB1 250814Z 01005KT 21/11 A2996 RMK A01 T02100110  RH  053%=      5-min Rain = 0
KSB1 250815Z 02005KT 21/11 A2996 RMK A01 T02120112  RH  053%=      5-min Rain = 0
KSB1 250816Z 01004KT 21/11 A2995 RMK A01 T02120108  RH  051%=      5-min Rain = 0
KSB1 250817Z 01005KT 21/11 A2996 RMK A01 T02120105  RH  051%=      5-min Rain = 0
KSB1 250818Z 02005KT 21/11 A2996 RMK A01 T02100105  RH  051%=      5-min Rain = 0
KSB1 250819Z 01005KT 21/11 A2996 RMK A01 T02090105  RH  051%=      5-min Rain = 0
KSB1 250820Z 02005KT 21/10 A2996 RMK A01 T02080104  RH  051%=      5-min Rain = 0
KSB1 250821Z 02004KT 21/11 A2996 RMK A01 T02080105  RH  052%=      5-min Rain = 0
KSB1 250822Z 02004KT 21/10 A2996 RMK A01 T02080104  RH  051%=      5-min Rain = 0
KSB1 250823Z 03004KT 21/10 A2996 RMK A01 T02080103  RH  051%=      5-min Rain = 0
KSB1 250824Z 03004KT 21/10 A2996 RMK A01 T02080104  RH  051%=      5-min Rain = 0
KSB1 250825Z 02004KT 21/10 A2996 RMK A01 T02090103  RH  051%=      5-min Rain = 0
KSB1 250826Z 03004KT 21/10 A2996 RMK A01 T02090102  RH  050%=      5-min Rain = 0
KSB1 250827Z 02004KT 21/10 A2996 RMK A01 T02090103  RH  051%=      5-min Rain = 0
KSB1 250828Z 02004KT 21/10 A2996 RMK A01 T02090101  RH  050%=      5-min Rain = 0
KSB1 250829Z 01005KT 21/10 A2996 RMK A01 T02100101  RH  050%=      5-min Rain = 0
KSB1 250830Z 00005KT 21/10 A2996 RMK A01 T02100101  RH  050%=      5-min Rain = 0
KSB1 250831Z 00005KT 21/10 A2996 RMK A01 T02090102  RH  050%=      5-min Rain = 0
KSB1 250832Z 01005KT 21/10 A2996 RMK A01 T02090103  RH  051%=      5-min Rain = 0
KSB1 250833Z 36005KT 21/10 A2996 RMK A01 T02090104  RH  051%=      5-min Rain = 0
KSB1 250834Z 35004KT 21/10 A2996 RMK A01 T02100104  RH  051%=      5-min Rain = 0
KSB1 250835Z 35004KT 21/11 A2996 RMK A01 T02100105  RH  051%=      5-min Rain = 0
KSB1 250836Z 35004KT 21/11 A2996 RMK A01 T02100106  RH  051%=      5-min Rain = 0
KSB1 250837Z 35004KT 21/11 A2996 RMK A01 T02110107  RH  051%=      5-min Rain = 0
KSB1 250838Z 35004KT 21/11 A2996 RMK A01 T02100106  RH  051%=      5-min Rain = 0
KSB1 250839Z 35003KT 21/11 A2996 RMK A01 T02100108  RH  052%=      5-min Rain = 0
KSB1 250840Z 34003KT 21/11 A2996 RMK A01 T02100108  RH  052%=      5-min Rain = 0
KSB1 250841Z 35003KT 21/11 A2996 RMK A01 T02100110  RH  053%=      5-min Rain = 0
KSB1 250842Z 36004KT 21/11 A2996 RMK A01 T02100111  RH  053%=      5-min Rain = 0
KSB1 250843Z 36003KT 21/11 A2996 RMK A01 T02100112  RH  053%=      5-min Rain = 0
KSB1 250844Z 36004KT 21/11 A2996 RMK A01 T02110113  RH  053%=      5-min Rain = 0
KSB1 250845Z 35004KT 21/11 A2996 RMK A01 T02120113  RH  053%=      5-min Rain = 0
KSB1 250846Z 34004KT 21/11 A2996 RMK A01 T02120114  RH  053%=      5-min Rain = 0
KSB1 250847Z 34004KT 21/12 A2996 RMK A01 T02130115  RH  054%=      5-min Rain = 0
KSB1 250848Z 34005KT 21/12 A2996 RMK A01 T02130116  RH  054%=      5-min Rain = 0
KSB1 250849Z 34005KT 21/12 A2996 RMK A01 T02130116  RH  054%=      5-min Rain = 0
KSB1 250850Z 34005KT 21/12 A2996 RMK A01 T02130116  RH  054%=      5-min Rain = 0
KSB1 250851Z 35004KT 21/12 A2996 RMK A01 T02120116  RH  054%=      5-min Rain = 0
KSB1 250852Z 35004KT 21/12 A2996 RMK A01 T02110116  RH  055%=      5-min Rain = 0
KSB1 250853Z 36004KT 21/12 A2996 RMK A01 T02110115  RH  054%=      5-min Rain = 0
KSB1 250854Z 00004KT 21/11 A2996 RMK A01 T02100114  RH  054%=      5-min Rain = 0
KSB1 250855Z 01004KT 21/11 A2996 RMK A01 T02100113  RH  054%=      5-min Rain = 0
KSB1 250856Z 01004KT 21/11 A2996 RMK A01 T02090111  RH  054%=      5-min Rain = 0
KSB1 250857Z 01004KT 21/11 A2996 RMK A01 T02090112  RH  054%=      5-min Rain = 0
KSB1 250858Z 00004KT 21/11 A2996 RMK A01 T02070111  RH  054%=      5-min Rain = 0
KSB1 250859Z 36004KT 21/11 A2996 RMK A01 T02060110  RH  054%=      5-min Rain = 0
KSB1 250900Z 36005KT 21/11 A2996 RMK A01 T02050110  RH  054%=      5-min Rain = 0
KSB1 250901Z 35005KT 20/11 A2996 RMK A01 T02040106  RH  053%=      5-min Rain = 0
KSB1 250902Z 35005KT 20/10 A2996 RMK A01 T02040104  RH  053%=      5-min Rain = 0
KSB1 250903Z 34005KT 20/10 A2996 RMK A01 T02040103  RH  052%=      5-min Rain = 0
KSB1 250904Z 34005KT 20/10 A2996 RMK A01 T02040102  RH  052%=      5-min Rain = 0
KSB1 250905Z 34005KT 20/10 A2996 RMK A01 T02040100  RH  051%=      5-min Rain = 0
KSB1 250906Z 34005KT 20/10 A2996 RMK A01 T02040101  RH  052%=      5-min Rain = 0
KSB1 250907Z 33006KT 20/10 A2996 RMK A01 T02040100  RH  051%=      5-min Rain = 0
KSB1 250908Z 33006KT 20/10 A2996 RMK A01 T02040099  RH  051%=      5-min Rain = 0
KSB1 250909Z 33006KT 20/10 A2996 RMK A01 T02040095  RH  050%=      5-min Rain = 0
KSB1 250910Z 33006KT 20/09 A2997 RMK A01 T02040094  RH  049%=      5-min Rain = 0
KSB1 250911Z 33005KT 20/09 A2997 RMK A01 T02040094  RH  049%=      5-min Rain = 0
KSB1 250912Z 33005KT 21/09 A2997 RMK A01 T02050092  RH  048%=      5-min Rain = 0
KSB1 250913Z 34005KT 21/09 A2997 RMK A01 T02060094  RH  049%=      5-min Rain = 0
KSB1 250914Z 34004KT 21/10 A2997 RMK A01 T02060095  RH  049%=      5-min Rain = 0
KSB1 250915Z 34005KT 21/10 A2997 RMK A01 T02070097  RH  049%=      5-min Rain = 0
KSB1 250916Z 35005KT 21/10 A2997 RMK A01 T02070096  RH  049%=      5-min Rain = 0
KSB1 250917Z 34005KT 21/10 A2997 RMK A01 T02070096  RH  049%=      5-min Rain = 0
KSB1 250918Z 34006KT 21/10 A2997 RMK A01 T02070095  RH  049%=      5-min Rain = 0
KSB1 250919Z 34006KT 21/10 A2997 RMK A01 T02070095  RH  049%=      5-min Rain = 0
KSB1 250920Z 33007KT 21/09 A2997 RMK A01 T02060092  RH  048%=      5-min Rain = 0
KSB1 250921Z 33007KT 21/08 A2997 RMK A01 T02050078  RH  044%=      5-min Rain = 0
KSB1 250922Z 34006KT 21/06 A2997 RMK A01 T02050056  RH  038%=      5-min Rain = 0
KSB1 250923Z 34007KT 21/05 A2997 RMK A01 T02050046  RH  035%=      5-min Rain = 0
KSB1 250924Z 33007KT 21/04 A2997 RMK A01 T02050041  RH  034%=      5-min Rain = 0
KSB1 250925Z 33008KT 20/04 A2997 RMK A01 T02040036  RH  033%=      5-min Rain = 0
KSB1 250926Z 32008KT 20/03 A2997 RMK A01 T02030032  RH  032%=      5-min Rain = 0
KSB1 250927Z 32008KT 20/03 A2997 RMK A01 T02030030  RH  032%=      5-min Rain = 0
KSB1 250928Z 32008KT 20/03 A2997 RMK A01 T02030028  RH  031%=      5-min Rain = 0
KSB1 250929Z 33007KT 20/03 A2997 RMK A01 T02030027  RH  031%=      5-min Rain = 0
KSB1 250930Z 32008KT 20/03 A2997 RMK A01 T02040028  RH  031%=      5-min Rain = 0
KSB1 250931Z 32007KT 21/03 A2997 RMK A01 T02050030  RH  032%=      5-min Rain = 0
KSB1 250932Z 32007KT 21/03 A2997 RMK A01 T02050031  RH  032%=      5-min Rain = 0
KSB1 250933Z 32007KT 21/03 A2997 RMK A01 T02060032  RH  032%=      5-min Rain = 0
KSB1 250934Z 33007KT 21/03 A2997 RMK A01 T02060031  RH  032%=      5-min Rain = 0
KSB1 250935Z 33007KT 21/03 A2997 RMK A01 T02070030  RH  031%=      5-min Rain = 0
KSB1 250936Z 32008KT 21/03 A2997 RMK A01 T02060027  RH  031%=      5-min Rain = 0
KSB1 250937Z 32008KT 21/03 A2997 RMK A01 T02070026  RH  030%=      5-min Rain = 0
KSB1 250938Z 32008KT 21/03 A2997 RMK A01 T02070027  RH  030%=      5-min Rain = 0
KSB1 250939Z 33007KT 21/03 A2997 RMK A01 T02080026  RH  030%=      5-min Rain = 0
KSB1 250940Z 34007KT 21/03 A2997 RMK A01 T02080026  RH  030%=      5-min Rain = 0
KSB1 250941Z 34006KT 21/03 A2997 RMK A01 T02090027  RH  030%=      5-min Rain = 0
KSB1 250942Z 33006KT 21/03 A2997 RMK A01 T02080027  RH  030%=      5-min Rain = 0
KSB1 250943Z 34006KT 21/03 A2997 RMK A01 T02070027  RH  031%=      5-min Rain = 0
KSB1 250944Z 34006KT 21/03 A2997 RMK A01 T02050027  RH  031%=      5-min Rain = 0
KSB1 250945Z 34006KT 20/03 A2997 RMK A01 T02040027  RH  031%=      5-min Rain = 0
KSB1 250946Z 34006KT 20/03 A2997 RMK A01 T02030028  RH  031%=      5-min Rain = 0
KSB1 250947Z 34006KT 20/03 A2997 RMK A01 T02010027  RH  032%=      5-min Rain = 0
KSB1 250948Z 35006KT 20/03 A2997 RMK A01 T02000028  RH  032%=      5-min Rain = 0
KSB1 250949Z 35006KT 20/03 A2997 RMK A01 T01990028  RH  032%=      5-min Rain = 0
KSB1 250950Z 35006KT 20/03 A2997 RMK A01 T01980028  RH  032%=      5-min Rain = 0
KSB1 250951Z 35006KT 20/03 A2997 RMK A01 T01960027  RH  033%=      5-min Rain = 0
KSB1 250952Z 34007KT 20/03 A2997 RMK A01 T01960028  RH  033%=      5-min Rain = 0
KSB1 250953Z 34007KT 20/03 A2997 RMK A01 T01950030  RH  033%=      5-min Rain = 0
KSB1 250954Z 33007KT 20/03 A2997 RMK A01 T01960031  RH  033%=      5-min Rain = 0
KSB1 250955Z 33007KT 20/03 A2997 RMK A01 T01970034  RH  034%=      5-min Rain = 0
KSB1 250956Z 33007KT 20/04 A2997 RMK A01 T01980039  RH  035%=      5-min Rain = 0
KSB1 250957Z 32007KT 20/04 A2997 RMK A01 T01990044  RH  036%=      5-min Rain = 0
KSB1 250958Z 32007KT 20/05 A2997 RMK A01 T02010053  RH  038%=      5-min Rain = 0
KSB1 250959Z 32007KT 20/06 A2997 RMK A01 T02020062  RH  040%=      5-min Rain = 0
KSB1 251000Z 33007KT 20/07 A2997 RMK A01 T02030071  RH  042%=      5-min Rain = 0
KSB1 251001Z 32007KT 20/07 A2997 RMK A01 T02030069  RH  042%=      5-min Rain = 0
KSB1 251002Z 33007KT 20/07 A2997 RMK A01 T02040069  RH  042%=      5-min Rain = 0
KSB1 251003Z 33006KT 20/07 A2997 RMK A01 T02040071  RH  042%=      5-min Rain = 0
KSB1 251004Z 33006KT 20/07 A2997 RMK A01 T02040074  RH  043%=      5-min Rain = 0
KSB1 251005Z 33006KT 20/08 A2997 RMK A01 T02040078  RH  044%=      5-min Rain = 0
KSB1 251006Z 32006KT 20/08 A2997 RMK A01 T02040083  RH  046%=      5-min Rain = 0
KSB1 251007Z 32006KT 20/09 A2997 RMK A01 T02040086  RH  047%=      5-min Rain = 0
KSB1 251008Z 32006KT 21/09 A2997 RMK A01 T02050093  RH  048%=      5-min Rain = 0
KSB1 251009Z 32006KT 21/10 A2997 RMK A01 T02050099  RH  050%=      5-min Rain = 0
KSB1 251010Z 34005KT 21/10 A2997 RMK A01 T02060104  RH  052%=      5-min Rain = 0
KSB1 251011Z 34005KT 21/11 A2997 RMK A01 T02070109  RH  053%=      5-min Rain = 0
KSB1 251012Z 34005KT 21/11 A2997 RMK A01 T02070107  RH  053%=      5-min Rain = 0
KSB1 251013Z 34005KT 21/11 A2997 RMK A01 T02070107  RH  053%=      5-min Rain = 0
KSB1 251014Z 34005KT 21/11 A2997 RMK A01 T02050106  RH  053%=      5-min Rain = 0
KSB1 251015Z 34004KT 20/11 A2997 RMK A01 T02040106  RH  053%=      5-min Rain = 0
KSB1 251016Z 32003KT 20/10 A2998 RMK A01 T02020096  RH  051%=      5-min Rain = 0
KSB1 251017Z 30002KT 20/06 A2998 RMK A01 T01960058  RH  041%=      5-min Rain = 0
KSB1 251018Z 28002KT 19/05 A2998 RMK A01 T01910052  RH  040%=      5-min Rain = 0
KSB1 251019Z 24002KT 19/06 A2998 RMK A01 T01890057  RH  042%=      5-min Rain = 0
KSB1 251020Z 23002KT 19/06 A2998 RMK A01 T01860056  RH  042%=      5-min Rain = 0
KSB1 251021Z 24002KT 18/06 A2998 RMK A01 T01840059  RH  044%=      5-min Rain = 0
KSB1 251022Z 28002KT 18/07 A2997 RMK A01 T01820068  RH  047%=      5-min Rain = 0
KSB1 251023Z 31002KT 18/09 A2997 RMK A01 T01820087  RH  054%=      5-min Rain = 0
KSB1 251024Z 32003KT 18/09 A2997 RMK A01 T01840092  RH  055%=      5-min Rain = 0
KSB1 251025Z 32005KT 19/09 A2997 RMK A01 T01850088  RH  053%=      5-min Rain = 0
KSB1 251026Z 32005KT 19/10 A2997 RMK A01 T01870103  RH  058%=      5-min Rain = 0
KSB1 251027Z 31006KT 19/12 A2997 RMK A01 T01900115  RH  062%=      5-min Rain = 0
KSB1 251028Z 31006KT 19/12 A2997 RMK A01 T01930117  RH  061%=      5-min Rain = 0
KSB1 251029Z 32005KT 19/10 A2997 RMK A01 T01930096  RH  053%=      5-min Rain = 0
KSB1 251030Z 33005KT 19/11 A2997 RMK A01 T01910113  RH  060%=      5-min Rain = 0
KSB1 251031Z 33006KT 19/12 A2997 RMK A01 T01930120  RH  063%=      5-min Rain = 0
KSB1 251032Z 33006KT 20/12 A2997 RMK A01 T01960122  RH  062%=      5-min Rain = 0
KSB1 251033Z 33006KT 20/12 A2997 RMK A01 T01980123  RH  062%=      5-min Rain = 0
KSB1 251034Z 33006KT 20/12 A2997 RMK A01 T01990124  RH  062%=      5-min Rain = 0
KSB1 251035Z 33006KT 20/12 A2997 RMK A01 T02000123  RH  061%=      5-min Rain = 0
KSB1 251036Z 33006KT 20/12 A2997 RMK A01 T02000123  RH  061%=      5-min Rain = 0
KSB1 251037Z 33006KT 20/12 A2997 RMK A01 T02000124  RH  061%=      5-min Rain = 0
KSB1 251038Z 33005KT 20/13 A2997 RMK A01 T02000125  RH  062%=      5-min Rain = 0
KSB1 251039Z 33005KT 20/12 A2997 RMK A01 T02000124  RH  062%=      5-min Rain = 0
KSB1 251040Z 33005KT 20/12 A2997 RMK A01 T01980124  RH  062%=      5-min Rain = 0
KSB1 251041Z 33005KT 20/13 A2997 RMK A01 T01960125  RH  063%=      5-min Rain = 0
KSB1 251042Z 34005KT 20/13 A2997 RMK A01 T01950125  RH  064%=      5-min Rain = 0
KSB1 251043Z 34005KT 19/12 A2997 RMK A01 T01930123  RH  064%=      5-min Rain = 0
KSB1 251044Z 34005KT 19/12 A2997 RMK A01 T01910120  RH  063%=      5-min Rain = 0
KSB1 251045Z 33006KT 19/12 A2997 RMK A01 T01890118  RH  063%=      5-min Rain = 0
KSB1 251046Z 33006KT 19/11 A2997 RMK A01 T01880106  RH  059%=      5-min Rain = 0
KSB1 251047Z 33006KT 19/09 A2997 RMK A01 T01870094  RH  054%=      5-min Rain = 0
KSB1 251048Z 33006KT 19/09 A2997 RMK A01 T01870085  RH  051%=      5-min Rain = 0
KSB1 251049Z 33006KT 19/08 A2997 RMK A01 T01870077  RH  049%=      5-min Rain = 0
KSB1 251050Z 33006KT 19/07 A2997 RMK A01 T01860071  RH  047%=      5-min Rain = 0
KSB1 251051Z 33006KT 19/06 A2997 RMK A01 T01870063  RH  045%=      5-min Rain = 0
KSB1 251052Z 32006KT 19/06 A2998 RMK A01 T01860059  RH  043%=      5-min Rain = 0
KSB1 251053Z 32006KT 19/06 A2998 RMK A01 T01850056  RH  043%=      5-min Rain = 0
KSB1 251054Z 33007KT 19/06 A2998 RMK A01 T01850055  RH  043%=      5-min Rain = 0
KSB1 251055Z 32007KT 19/06 A2998 RMK A01 T01850056  RH  043%=      5-min Rain = 0
KSB1 251056Z 32007KT 19/06 A2998 RMK A01 T01860058  RH  043%=      5-min Rain = 0
KSB1 251057Z 32007KT 19/06 A2998 RMK A01 T01860060  RH  044%=      5-min Rain = 0
KSB1 251058Z 32007KT 19/06 A2998 RMK A01 T01880063  RH  044%=      5-min Rain = 0
KSB1 251059Z 32007KT 19/07 A2997 RMK A01 T01890067  RH  045%=      5-min Rain = 0
KSB1 251100Z 32007KT 19/07 A2997 RMK A01 T01910074  RH  047%=      5-min Rain = 0
KSB1 251101Z 33007KT 19/08 A2997 RMK A01 T01930078  RH  047%=      5-min Rain = 0
KSB1 251102Z 33007KT 20/08 A2998 RMK A01 T01950080  RH  047%=      5-min Rain = 0
KSB1 251103Z 33007KT 20/08 A2998 RMK A01 T01960081  RH  047%=      5-min Rain = 0
KSB1 251104Z 33007KT 20/08 A2998 RMK A01 T01970082  RH  047%=      5-min Rain = 0
KSB1 251105Z 33006KT 20/08 A2998 RMK A01 T01980083  RH  047%=      5-min Rain = 0
KSB1 251106Z 33005KT 20/08 A2998 RMK A01 T01980084  RH  048%=      5-min Rain = 0
KSB1 251107Z 34005KT 20/09 A2998 RMK A01 T01990085  RH  048%=      5-min Rain = 0
KSB1 251108Z 34004KT 20/08 A2998 RMK A01 T01990083  RH  047%=      5-min Rain = 0
KSB1 251109Z 36003KT 19/07 A2998 RMK A01 T01940069  RH  044%=      5-min Rain = 0
KSB1 251110Z 00003KT 19/06 A2998 RMK A01 T01850061  RH  044%=      5-min Rain = 0
KSB1 251111Z 00003KT 18/06 A2998 RMK A01 T01780059  RH  045%=      5-min Rain = 0
KSB1 251112Z 00003KT 17/06 A2998 RMK A01 T01740057  RH  046%=      5-min Rain = 0
KSB1 251113Z 35004KT 17/06 A2998 RMK A01 T01710057  RH  047%=      5-min Rain = 0
KSB1 251114Z 35005KT 17/06 A2998 RMK A01 T01690057  RH  047%=      5-min Rain = 0
KSB1 251115Z 35006KT 17/06 A2998 RMK A01 T01680057  RH  048%=      5-min Rain = 0
KSB1 251116Z 35005KT 17/06 A2998 RMK A01 T01660057  RH  048%=      5-min Rain = 0
KSB1 251117Z 35004KT 17/06 A2998 RMK A01 T01660058  RH  049%=      5-min Rain = 0
KSB1 251118Z 35004KT 17/06 A2998 RMK A01 T01650059  RH  049%=      5-min Rain = 0
KSB1 251119Z 34004KT 17/06 A2998 RMK A01 T01660060  RH  049%=      5-min Rain = 0
KSB1 251120Z 33005KT 17/06 A2998 RMK A01 T01670061  RH  050%=      5-min Rain = 0
KSB1 251121Z 32005KT 17/06 A2998 RMK A01 T01680062  RH  050%=      5-min Rain = 0
KSB1 251122Z 32006KT 17/06 A2998 RMK A01 T01690063  RH  050%=      5-min Rain = 0
KSB1 251123Z 31005KT 17/07 A2998 RMK A01 T01710065  RH  050%=      5-min Rain = 0
KSB1 251124Z 28003KT 17/06 A2998 RMK A01 T01740059  RH  047%=      5-min Rain = 0
KSB1 251125Z 26002KT 18/06 A2998 RMK A01 T01780059  RH  045%=      5-min Rain = 0
KSB1 251126Z 27002KT 18/06 A2998 RMK A01 T01800061  RH  045%=      5-min Rain = 0
KSB1 251127Z 28002KT 18/06 A2998 RMK A01 T01800062  RH  046%=      5-min Rain = 0
KSB1 251128Z 29002KT 18/06 A2999 RMK A01 T01790063  RH  047%=      5-min Rain = 0
KSB1 251129Z 30002KT 18/07 A2999 RMK A01 T01780065  RH  048%=      5-min Rain = 0
KSB1 251130Z 31003KT 18/07 A2999 RMK A01 T01770066  RH  048%=      5-min Rain = 0
KSB1 251131Z 31004KT 18/06 A2999 RMK A01 T01750062  RH  047%=      5-min Rain = 0
KSB1 251132Z 31005KT 18/05 A2999 RMK A01 T01750049  RH  043%=      5-min Rain = 0
KSB1 251133Z 31005KT 18/05 A2999 RMK A01 T01770050  RH  043%=      5-min Rain = 0
KSB1 251134Z 31005KT 18/06 A2999 RMK A01 T01770058  RH  045%=      5-min Rain = 0
KSB1 251135Z 31005KT 18/04 A2999 RMK A01 T01770039  RH  040%=      5-min Rain = 0
KSB1 251136Z 31005KT 18/03 A2999 RMK A01 T01820025  RH  035%=      5-min Rain = 0
KSB1 251137Z 31002KT 19/05 A2999 RMK A01 T01860049  RH  040%=      5-min Rain = 0
KSB1 251138Z 32002KT 18/06 A2999 RMK A01 T01800056  RH  044%=      5-min Rain = 0
KSB1 251139Z 33002KT 18/06 A2999 RMK A01 T01750055  RH  045%=      5-min Rain = 0
KSB1 251140Z 33004KT 17/04 A2999 RMK A01 T01740043  RH  042%=      5-min Rain = 0
KSB1 251141Z 32004KT 18/04 A2999 RMK A01 T01770036  RH  039%=      5-min Rain = 0
KSB1 251142Z 32005KT 18/04 A2999 RMK A01 T01810035  RH  038%=      5-min Rain = 0
KSB1 251143Z 32004KT 19/04 A2999 RMK A01 T01850036  RH  037%=      5-min Rain = 0
KSB1 251144Z 34003KT 19/04 A2999 RMK A01 T01880041  RH  038%=      5-min Rain = 0
KSB1 251145Z 04003KT 19/05 A2999 RMK A01 T01870050  RH  041%=      5-min Rain = 0
KSB1 251146Z 06004KT 18/06 A2999 RMK A01 T01800055  RH  044%=      5-min Rain = 0
KSB1 251147Z 05004KT 17/06 A2999 RMK A01 T01720057  RH  047%=      5-min Rain = 0
KSB1 251148Z 06003KT 17/06 A2999 RMK A01 T01660058  RH  049%=      5-min Rain = 0
KSB1 251149Z 07004KT 16/06 A2999 RMK A01 T01620058  RH  050%=      5-min Rain = 0
KSB1 251150Z 07004KT 16/06 A30 RMK A01 T01590056  RH  050%=      5-min Rain = 0
KSB1 251151Z 08004KT 16/06 A30 RMK A01 T01550055  RH  051%=      5-min Rain = 0
KSB1 251152Z 09005KT 15/06 A30 RMK A01 T01530056  RH  052%=      5-min Rain = 0
KSB1 251153Z 09006KT 15/05 A30 RMK A01 T01500054  RH  053%=      5-min Rain = 0
KSB1 251154Z 10007KT 15/05 A30 RMK A01 T01460052  RH  053%=      5-min Rain = 0
KSB1 251155Z 11007KT 14/05 A30 RMK A01 T01410050  RH  054%=      5-min Rain = 0
KSB1 251156Z 10006KT 14/05 A30 RMK A01 T01370048  RH  055%=      5-min Rain = 0
KSB1 251157Z 09005KT 13/05 A30 RMK A01 T01340047  RH  056%=      5-min Rain = 0
KSB1 251158Z 08004KT 13/05 A30 RMK A01 T01330048  RH  056%=      5-min Rain = 0
KSB1 251159Z 06004KT 13/05 A30 RMK A01 T01330049  RH  057%=      5-min Rain = 0
KSB1 251200Z 07004KT 13/05 A30 RMK A01 T01340052  RH  058%=      5-min Rain = 0
KSB1 251201Z 09004KT 14/05 A30 RMK A01 T01370054  RH  057%=      5-min Rain = 0
KSB1 251202Z 10003KT 14/05 A30 RMK A01 T01400054  RH  056%=      5-min Rain = 0
KSB1 251203Z 10003KT 14/05 A30 RMK A01 T01410054  RH  056%=      5-min Rain = 0
KSB1 251204Z 09003KT 14/05 A3001 RMK A01 T01420054  RH  055%=      5-min Rain = 0
KSB1 251205Z 08003KT 14/05 A3001 RMK A01 T01430053  RH  055%=      5-min Rain = 0
KSB1 251206Z 08004KT 14/05 A3001 RMK A01 T01430053  RH  055%=      5-min Rain = 0
KSB1 251207Z 08004KT 14/05 A3001 RMK A01 T01430052  RH  054%=      5-min Rain = 0
KSB1 251208Z 08004KT 14/05 A3001 RMK A01 T01420051  RH  054%=      5-min Rain = 0
KSB1 251209Z 06004KT 14/05 A3001 RMK A01 T01400049  RH  054%=      5-min Rain = 0
KSB1 251210Z 06004KT 14/05 A3001 RMK A01 T01400046  RH  053%=      5-min Rain = 0
KSB1 251211Z 06004KT 14/05 A3001 RMK A01 T01400045  RH  053%=      5-min Rain = 0
KSB1 251212Z 06004KT 14/04 A3001 RMK A01 T01400044  RH  052%=      5-min Rain = 0
KSB1 251213Z 06004KT 14/04 A3001 RMK A01 T01400043  RH  052%=      5-min Rain = 0
KSB1 251214Z 06003KT 14/04 A3001 RMK A01 T01410041  RH  051%=      5-min Rain = 0
KSB1 251215Z 06003KT 14/04 A3001 RMK A01 T01420042  RH  051%=      5-min Rain = 0
KSB1 251216Z 04003KT 14/04 A3001 RMK A01 T01430044  RH  051%=      5-min Rain = 0
KSB1 251217Z 04003KT 15/05 A3001 RMK A01 T01450046  RH  051%=      5-min Rain = 0
KSB1 251218Z 03002KT 15/05 A3001 RMK A01 T01460048  RH  051%=      5-min Rain = 0
KSB1 251219Z 03002KT 15/05 A3001 RMK A01 T01480048  RH  051%=      5-min Rain = 0
KSB1 251220Z 03002KT 15/05 A3001 RMK A01 T01490049  RH  051%=      5-min Rain = 0
KSB1 251221Z 02001KT 15/05 A3001 RMK A01 T01500050  RH  051%=      5-min Rain = 0
KSB1 251222Z 36001KT 15/05 A3001 RMK A01 T01510047  RH  050%=      5-min Rain = 0
KSB1 251223Z 35001KT 15/05 A3001 RMK A01 T01500047  RH  050%=      5-min Rain = 0
KSB1 251224Z 35001KT 15/05 A3001 RMK A01 T01500050  RH  051%=      5-min Rain = 0
KSB1 251225Z 01001KT 15/05 A3001 RMK A01 T01500052  RH  052%=      5-min Rain = 0
KSB1 251226Z 32002KT 15/05 A3001 RMK A01 T01510053  RH  052%=      5-min Rain = 0
KSB1 251227Z 32003KT 15/06 A3001 RMK A01 T01520055  RH  052%=      5-min Rain = 0
KSB1 251228Z 32004KT 15/06 A3001 RMK A01 T01540056  RH  052%=      5-min Rain = 0
KSB1 251229Z 33003KT 16/06 A3001 RMK A01 T01560056  RH  051%=      5-min Rain = 0
KSB1 251230Z 32003KT 16/06 A3001 RMK A01 T01580057  RH  051%=      5-min Rain = 0
KSB1 251231Z 33004KT 16/06 A3001 RMK A01 T01600055  RH  050%=      5-min Rain = 0
KSB1 251232Z 33003KT 16/05 A3001 RMK A01 T01620054  RH  048%=      5-min Rain = 0
KSB1 251233Z 33004KT 17/05 A3001 RMK A01 T01660051  RH  046%=      5-min Rain = 0
KSB1 251234Z 33003KT 17/05 A3002 RMK A01 T01700052  RH  046%=      5-min Rain = 0
KSB1 251235Z 33003KT 17/05 A3002 RMK A01 T01720052  RH  045%=      5-min Rain = 0
KSB1 251236Z 32003KT 18/05 A3002 RMK A01 T01760049  RH  043%=      5-min Rain = 0
KSB1 251237Z 30003KT 18/05 A3002 RMK A01 T01760053  RH  044%=      5-min Rain = 0
KSB1 251238Z 29003KT 17/05 A3002 RMK A01 T01690053  RH  046%=      5-min Rain = 0
KSB1 251239Z 32003KT 16/05 A3002 RMK A01 T01640050  RH  047%=      5-min Rain = 0
KSB1 251240Z 32004KT 17/05 A3002 RMK A01 T01650051  RH  047%=      5-min Rain = 0
KSB1 251241Z 31003KT 16/05 A3002 RMK A01 T01640052  RH  047%=      5-min Rain = 0
KSB1 251242Z 31004KT 16/05 A3002 RMK A01 T01630053  RH  048%=      5-min Rain = 0
KSB1 251243Z 31003KT 16/05 A3002 RMK A01 T01610052  RH  048%=      5-min Rain = 0
KSB1 251244Z 30003KT 16/05 A3002 RMK A01 T01610050  RH  048%=      5-min Rain = 0
KSB1 251245Z 30003KT 16/05 A3002 RMK A01 T01620050  RH  047%=      5-min Rain = 0
KSB1 251246Z 31004KT 16/05 A3002 RMK A01 T01630050  RH  047%=      5-min Rain = 0
KSB1 251247Z 32003KT 16/05 A3002 RMK A01 T01640049  RH  046%=      5-min Rain = 0
KSB1 251248Z 32003KT 17/05 A3002 RMK A01 T01670051  RH  046%=      5-min Rain = 0
KSB1 251249Z 33003KT 17/05 A3002 RMK A01 T01690051  RH  046%=      5-min Rain = 0
KSB1 251250Z 33003KT 17/05 A3002 RMK A01 T01700048  RH  045%=      5-min Rain = 0
KSB1 251251Z 32002KT 17/05 A3002 RMK A01 T01710049  RH  045%=      5-min Rain = 0
KSB1 251252Z 33002KT 17/05 A3002 RMK A01 T01720048  RH  044%=      5-min Rain = 0
KSB1 251253Z 33002KT 18/05 A3002 RMK A01 T01750048  RH  043%=      5-min Rain = 0
KSB1 251254Z 33003KT 18/05 A3002 RMK A01 T01770051  RH  043%=      5-min Rain = 0
KSB1 251255Z 34003KT 18/04 A3002 RMK A01 T01810036  RH  038%=      5-min Rain = 0
KSB1 251256Z 00002KT 19/04 A3002 RMK A01 T01870042  RH  038%=      5-min Rain = 0
KSB1 251257Z 34002KT 19/06 A3002 RMK A01 T01900059  RH  042%=      5-min Rain = 0
KSB1 251258Z 34003KT 19/06 A3002 RMK A01 T01920062  RH  043%=      5-min Rain = 0
KSB1 251259Z 33003KT 19/06 A3002 RMK A01 T01920063  RH  043%=      5-min Rain = 0
KSB1 251300Z 31004KT 19/05 A3002 RMK A01 T01930052  RH  039%=      5-min Rain = 0
KSB1 251301Z 31005KT 20/04 A3002 RMK A01 T01950035  RH  035%=      5-min Rain = 0
KSB1 251302Z 31007KT 20/01 A3002 RMK A01 T01990011  RH  028%=      5-min Rain = 0
KSB1 251303Z 31006KT 21/M00 A3002 RMK A01 T02051003  RH  025%=      5-min Rain = 0
KSB1 251304Z 32006KT 21/M01 A3002 RMK A01 T02091006  RH  024%=      5-min Rain = 0
KSB1 251305Z 32007KT 21/M01 A3002 RMK A01 T02131014  RH  022%=      5-min Rain = 0
KSB1 251306Z 32007KT 22/M02 A3002 RMK A01 T02171020  RH  020%=      5-min Rain = 0
KSB1 251307Z 33005KT 22/01 A3003 RMK A01 T02210007  RH  025%=      5-min Rain = 0
KSB1 251308Z 06002KT 22/06 A3003 RMK A01 T02170059  RH  036%=      5-min Rain = 0
KSB1 251309Z 01002KT 21/06 A3003 RMK A01 T02070060  RH  038%=      5-min Rain = 0
KSB1 251310Z 35002KT 20/06 A3003 RMK A01 T01990058  RH  040%=      5-min Rain = 0
KSB1 251311Z 35002KT 20/05 A3003 RMK A01 T01950046  RH  037%=      5-min Rain = 0
KSB1 251312Z 33003KT 20/05 A3003 RMK A01 T01950052  RH  039%=      5-min Rain = 0
KSB1 251313Z 34002KT 20/05 A3003 RMK A01 T01950045  RH  037%=      5-min Rain = 0
KSB1 251314Z 35002KT 20/06 A3003 RMK A01 T01960060  RH  041%=      5-min Rain = 0
KSB1 251315Z 34003KT 20/06 A3003 RMK A01 T01960057  RH  040%=      5-min Rain = 0
KSB1 251316Z 33003KT 20/05 A3003 RMK A01 T01960047  RH  037%=      5-min Rain = 0
KSB1 251317Z 33005KT 20/04 A3003 RMK A01 T01970044  RH  037%=      5-min Rain = 0
KSB1 251318Z 32006KT 20/01 A3003 RMK A01 T02020005  RH  027%=      5-min Rain = 0
KSB1 251319Z 32006KT 21/M01 A3003 RMK A01 T02091008  RH  023%=      5-min Rain = 0
KSB1 251320Z 32007KT 22/M01 A3003 RMK A01 T02151013  RH  022%=      5-min Rain = 0
KSB1 251321Z 32006KT 22/M02 A3003 RMK A01 T02201017  RH  020%=      5-min Rain = 0
KSB1 251322Z 32006KT 22/M02 A3003 RMK A01 T02221017  RH  020%=      5-min Rain = 0
KSB1 251323Z 32006KT 22/M02 A3003 RMK A01 T02241017  RH  020%=      5-min Rain = 0
KSB1 251324Z 32006KT 23/M02 A3003 RMK A01 T02261018  RH  020%=      5-min Rain = 0
KSB1 251325Z 31005KT 23/M02 A3003 RMK A01 T02271017  RH  019%=      5-min Rain = 0
KSB1 251326Z 32005KT 23/M02 A3003 RMK A01 T02281016  RH  020%=      5-min Rain = 0
KSB1 251327Z 32005KT 23/M02 A3003 RMK A01 T02291016  RH  019%=      5-min Rain = 0
KSB1 251328Z 32006KT 23/M02 A3003 RMK A01 T02301017  RH  019%=      5-min Rain = 0
KSB1 251329Z 32006KT 23/M02 A3003 RMK A01 T02301022  RH  019%=      5-min Rain = 0
KSB1 251330Z 32006KT 23/M02 A3003 RMK A01 T02301021  RH  019%=      5-min Rain = 0
KSB1 251331Z 33006KT 23/M02 A3004 RMK A01 T02311022  RH  018%=      5-min Rain = 0
KSB1 251332Z 32006KT 23/M02 A3004 RMK A01 T02311022  RH  018%=      5-min Rain = 0
KSB1 251333Z 32007KT 23/M02 A3004 RMK A01 T02321021  RH  018%=      5-min Rain = 0
KSB1 251334Z 33007KT 23/M02 A3004 RMK A01 T02321023  RH  018%=      5-min Rain = 0
KSB1 251335Z 32006KT 23/M02 A3004 RMK A01 T02321021  RH  018%=      5-min Rain = 0
KSB1 251336Z 32006KT 23/M02 A3004 RMK A01 T02321023  RH  018%=      5-min Rain = 0
KSB1 251337Z 33006KT 23/M02 A3004 RMK A01 T02331023  RH  018%=      5-min Rain = 0
KSB1 251338Z 32006KT 23/M02 A3004 RMK A01 T02331022  RH  018%=      5-min Rain = 0
KSB1 251339Z 32006KT 23/M02 A3004 RMK A01 T02331023  RH  018%=      5-min Rain = 0
KSB1 251340Z 32006KT 23/M02 A3004 RMK A01 T02331024  RH  018%=      5-min Rain = 0
KSB1 251341Z 32006KT 23/M03 A3004 RMK A01 T02331026  RH  018%=      5-min Rain = 0
KSB1 251342Z 32006KT 23/M03 A3004 RMK A01 T02331026  RH  018%=      5-min Rain = 0
KSB1 251343Z 33007KT 23/M03 A3004 RMK A01 T02341025  RH  018%=      5-min Rain = 0
KSB1 251344Z 32007KT 23/M03 A3004 RMK A01 T02341025  RH  018%=      5-min Rain = 0
KSB1 251345Z 32007KT 24/M03 A3004 RMK A01 T02351028  RH  017%=      5-min Rain = 0
KSB1 251346Z 33007KT 24/M03 A3004 RMK A01 T02351029  RH  017%=      5-min Rain = 0
KSB1 251347Z 33008KT 24/M03 A3004 RMK A01 T02361027  RH  017%=      5-min Rain = 0
KSB1 251348Z 33007KT 24/M03 A3004 RMK A01 T02361026  RH  017%=      5-min Rain = 0
KSB1 251349Z 33007KT 24/M03 A3004 RMK A01 T02361025  RH  018%=      5-min Rain = 0
KSB1 251350Z 32007KT 24/M03 A3004 RMK A01 T02361026  RH  017%=      5-min Rain = 0
KSB1 251351Z 33007KT 24/M03 A3004 RMK A01 T02361028  RH  017%=      5-min Rain = 0
KSB1 251352Z 33008KT 24/M03 A3004 RMK A01 T02371031  RH  017%=      5-min Rain = 0
KSB1 251353Z 32007KT 24/M03 A3004 RMK A01 T02371029  RH  017%=      5-min Rain = 0
KSB1 251354Z 33008KT 24/M03 A3004 RMK A01 T02381029  RH  017%=      5-min Rain = 0
KSB1 251355Z 33007KT 24/M03 A3004 RMK A01 T02381034  RH  016%=      5-min Rain = 0
KSB1 251356Z 33008KT 24/M03 A3004 RMK A01 T02381033  RH  016%=      5-min Rain = 0
KSB1 251357Z 33008KT 24/M03 A3004 RMK A01 T02381031  RH  016%=      5-min Rain = 0
KSB1 251358Z 33009KT 24/M03 A3004 RMK A01 T02381031  RH  017%=      5-min Rain = 0
KSB1 251359Z 33008KT 24/M03 A3004 RMK A01 T02391030  RH  017%=      5-min Rain = 0
KSB1 251400Z 32008KT 24/M04 A3004 RMK A01 T02401035  RH  016%=      5-min Rain = 0
KSB1 251401Z 32008KT 24/M04 A3004 RMK A01 T02411040  RH  015%=      5-min Rain = 0
KSB1 251402Z 32008KT 24/M04 A3004 RMK A01 T02411040  RH  015%=      5-min Rain = 0
KSB1 251403Z 32006KT 24/M04 A3004 RMK A01 T02421040  RH  015%=      5-min Rain = 0
KSB1 251404Z 32007KT 24/M04 A3004 RMK A01 T02431036  RH  015%=      5-min Rain = 0
KSB1 251405Z 32009KT 24/M04 A3004 RMK A01 T02431038  RH  015%=      5-min Rain = 0
KSB1 251406Z 32007KT 24/M05 A3004 RMK A01 T02431045  RH  014%=      5-min Rain = 0
KSB1 251407Z 33006KT 24/M04 A3004 RMK A01 T02441037  RH  015%=      5-min Rain = 0
KSB1 251408Z 33008KT 25/M04 A3004 RMK A01 T02451037  RH  015%=      5-min Rain = 0
KSB1 251409Z 32008KT 25/M04 A3004 RMK A01 T02461041  RH  015%=      5-min Rain = 0
KSB1 251410Z 33007KT 25/M04 A3004 RMK A01 T02471042  RH  014%=      5-min Rain = 0
KSB1 251411Z 32008KT 25/M04 A3004 RMK A01 T02481041  RH  014%=      5-min Rain = 0
KSB1 251412Z 32008KT 25/M04 A3005 RMK A01 T02481040  RH  015%=      5-min Rain = 0
KSB1 251413Z 33007KT 25/M04 A3005 RMK A01 T02491041  RH  014%=      5-min Rain = 0
KSB1 251414Z 32006KT 25/M04 A3005 RMK A01 T02491038  RH  015%=      5-min Rain = 0
KSB1 251415Z 32006KT 25/M04 A3005 RMK A01 T02491042  RH  014%=      5-min Rain = 0
KSB1 251416Z 33007KT 25/M04 A3005 RMK A01 T02491040  RH  014%=      5-min Rain = 0
KSB1 251417Z 33007KT 25/M04 A3005 RMK A01 T02501043  RH  014%=      5-min Rain = 0
KSB1 251418Z 33007KT 25/M04 A3005 RMK A01 T02501042  RH  014%=      5-min Rain = 0
KSB1 251419Z 33007KT 25/M04 A3005 RMK A01 T02511043  RH  014%=      5-min Rain = 0
KSB1 251420Z 32007KT 25/M04 A3005 RMK A01 T02521040  RH  014%=      5-min Rain = 0
KSB1 251421Z 32006KT 25/M04 A3005 RMK A01 T02531042  RH  014%=      5-min Rain = 0
KSB1 251422Z 31006KT 25/M04 A3005 RMK A01 T02531040  RH  014%=      5-min Rain = 0
KSB1 251423Z 31007KT 25/M04 A3005 RMK A01 T02531042  RH  014%=      5-min Rain = 0
KSB1 251424Z 32007KT 25/M05 A3005 RMK A01 T02531045  RH  014%=      5-min Rain = 0
KSB1 251425Z 32008KT 25/M04 A3005 RMK A01 T02531042  RH  014%=      5-min Rain = 0
KSB1 251426Z 31007KT 25/M05 A3005 RMK A01 T02531047  RH  013%=      5-min Rain = 0
KSB1 251427Z 32006KT 25/M05 A3005 RMK A01 T02531045  RH  014%=      5-min Rain = 0
KSB1 251428Z 34006KT 25/M04 A3005 RMK A01 T02541040  RH  014%=      5-min Rain = 0
KSB1 251429Z 36006KT 26/M03 A3005 RMK A01 T02551034  RH  015%=      5-min Rain = 0
KSB1 251430Z 00005KT 26/M03 A3005 RMK A01 T02561031  RH  015%=      5-min Rain = 0
KSB1 251431Z 00005KT 26/M03 A3005 RMK A01 T02561034  RH  014%=      5-min Rain = 0
KSB1 251432Z 34005KT 26/M03 A3005 RMK A01 T02561031  RH  015%=      5-min Rain = 0
KSB1 251433Z 34006KT 26/M04 A3005 RMK A01 T02571041  RH  014%=      5-min Rain = 0
KSB1 251434Z 34006KT 26/M04 A3005 RMK A01 T02561041  RH  014%=      5-min Rain = 0
KSB1 251435Z 34004KT 26/M04 A3006 RMK A01 T02561038  RH  014%=      5-min Rain = 0
KSB1 251436Z 35004KT 26/M03 A3006 RMK A01 T02561034  RH  014%=      5-min Rain = 0
KSB1 251437Z 35005KT 26/M04 A3006 RMK A01 T02581035  RH  014%=      5-min Rain = 0
KSB1 251438Z 35005KT 26/M04 A3006 RMK A01 T02591038  RH  014%=      5-min Rain = 0
KSB1 251439Z 36005KT 26/M04 A3006 RMK A01 T02581038  RH  014%=      5-min Rain = 0
KSB1 251440Z 36005KT 26/M04 A3006 RMK A01 T02591035  RH  014%=      5-min Rain = 0
KSB1 251441Z 34004KT 26/M04 A3006 RMK A01 T02591038  RH  014%=      5-min Rain = 0
KSB1 251442Z 34005KT 26/M04 A3006 RMK A01 T02591039  RH  014%=      5-min Rain = 0
KSB1 251443Z 36004KT 26/M04 A3006 RMK A01 T02581037  RH  014%=      5-min Rain = 0
KSB1 251444Z 35005KT 26/M04 A3006 RMK A01 T02581037  RH  014%=      5-min Rain = 0
KSB1 251445Z 01007KT 26/M00 A3006 RMK A01 T02591004  RH  018%=      5-min Rain = 0
KSB1 251446Z 05004KT 26/01 A3006 RMK A01 T02560012  RH  020%=      5-min Rain = 0
KSB1 251447Z 07003KT 25/00 A3006 RMK A01 T02540004  RH  019%=      5-min Rain = 0
KSB1 251448Z 07004KT 25/00 A3006 RMK A01 T02540002  RH  019%=      5-min Rain = 0
KSB1 251449Z 05005KT 26/M00 A3006 RMK A01 T02551001  RH  019%=      5-min Rain = 0
KSB1 251450Z 03004KT 26/00 A3006 RMK A01 T02560001  RH  019%=      5-min Rain = 0
KSB1 251451Z 05004KT 26/00 A3006 RMK A01 T02560004  RH  019%=      5-min Rain = 0
KSB1 251452Z 04004KT 26/01 A3006 RMK A01 T02560005  RH  019%=      5-min Rain = 0
KSB1 251453Z 05004KT 26/01 A3006 RMK A01 T02560008  RH  020%=      5-min Rain = 0
KSB1 251454Z 04004KT 26/01 A3006 RMK A01 T02560006  RH  019%=      5-min Rain = 0
KSB1 251455Z 04004KT 26/00 A3006 RMK A01 T02580003  RH  019%=      5-min Rain = 0
KSB1 251456Z 05004KT 26/01 A3006 RMK A01 T02590008  RH  019%=      5-min Rain = 0
KSB1 251457Z 03004KT 26/00 A3006 RMK A01 T02600003  RH  019%=      5-min Rain = 0
KSB1 251458Z 36005KT 26/M01 A3006 RMK A01 T02621010  RH  017%=      5-min Rain = 0
KSB1 251459Z 30004KT 26/M01 A3006 RMK A01 T02611009  RH  017%=      5-min Rain = 0
KSB1 251500Z 31006KT 26/M01 A3006 RMK A01 T02611014  RH  016%=      5-min Rain = 0
KSB1 251501Z 36003KT 26/M01 A3006 RMK A01 T02611007  RH  017%=      5-min Rain = 0
KSB1 251502Z 01004KT 26/00 A3006 RMK A01 T02620000  RH  018%=      5-min Rain = 0
KSB1 251503Z 33003KT 26/01 A3006 RMK A01 T02620005  RH  019%=      5-min Rain = 0
KSB1 251504Z 32006KT 26/M02 A3006 RMK A01 T02631017  RH  016%=      5-min Rain = 0
KSB1 251505Z 33007KT 26/M03 A3006 RMK A01 T02641026  RH  015%=      5-min Rain = 0
KSB1 251506Z 33010KT 27/M03 A3006 RMK A01 T02651027  RH  014%=      5-min Rain = 0
KSB1 251507Z 35007KT 27/M03 A3006 RMK A01 T02651026  RH  015%=      5-min Rain = 0
KSB1 251508Z 36005KT 27/M03 A3006 RMK A01 T02651029  RH  014%=      5-min Rain = 0
KSB1 251509Z 35006KT 26/M03 A3006 RMK A01 T02641028  RH  014%=      5-min Rain = 0
KSB1 251510Z 34006KT 26/M02 A3006 RMK A01 T02641024  RH  015%=      5-min Rain = 0
KSB1 251511Z 30005KT 27/M03 A3006 RMK A01 T02661025  RH  015%=      5-min Rain = 0
KSB1 251512Z 30006KT 27/M03 A3006 RMK A01 T02671025  RH  015%=      5-min Rain = 0
KSB1 251513Z 29003KT 27/M03 A3006 RMK A01 T02661025  RH  015%=      5-min Rain = 0
KSB1 251514Z 29003KT 26/M03 A3006 RMK A01 T02631027  RH  015%=      5-min Rain = 0
KSB1 251515Z 30004KT 26/M03 A3006 RMK A01 T02621026  RH  015%=      5-min Rain = 0
KSB1 251516Z 31007KT 26/M02 A3006 RMK A01 T02621024  RH  015%=      5-min Rain = 0
KSB1 251517Z 33007KT 26/M02 A3006 RMK A01 T02631019  RH  016%=      5-min Rain = 0
KSB1 251518Z 34006KT 27/M02 A3006 RMK A01 T02651015  RH  016%=      5-min Rain = 0
KSB1 251519Z 31007KT 27/M01 A3006 RMK A01 T02661014  RH  016%=      5-min Rain = 0
KSB1 251520Z 32007KT 27/M02 A3006 RMK A01 T02691017  RH  015%=      5-min Rain = 0
KSB1 251521Z 30010KT 27/M02 A3006 RMK A01 T02691017  RH  015%=      5-min Rain = 0
KSB1 251522Z 30008KT 27/M02 A3006 RMK A01 T02671017  RH  015%=      5-min Rain = 0
KSB1 251523Z 31006KT 27/M02 A3006 RMK A01 T02651019  RH  015%=      5-min Rain = 0
KSB1 251524Z 33006KT 26/M02 A3006 RMK A01 T02641017  RH  016%=      5-min Rain = 0
KSB1 251525Z 30007KT 27/M02 A3006 RMK A01 T02661015  RH  016%=      5-min Rain = 0
KSB1 251526Z 29007KT 27/M02 A3006 RMK A01 T02691016  RH  015%=      5-min Rain = 0
KSB1 251527Z 29006KT 27/M02 A3006 RMK A01 T02691017  RH  015%=      5-min Rain = 0
KSB1 251528Z 28006KT 27/M02 A3006 RMK A01 T02681018  RH  015%=      5-min Rain = 0
KSB1 251529Z 33005KT 27/M02 A3006 RMK A01 T02681015  RH  016%=      5-min Rain = 0
KSB1 251530Z 30007KT 27/M01 A3006 RMK A01 T02711014  RH  015%=      5-min Rain = 0
KSB1 251531Z 32006KT 27/M01 A3006 RMK A01 T02731014  RH  015%=      5-min Rain = 0
KSB1 251532Z 33008KT 28/M01 A3006 RMK A01 T02751014  RH  015%=      5-min Rain = 0
KSB1 251533Z 32006KT 27/M02 A3006 RMK A01 T02741017  RH  015%=      5-min Rain = 0
KSB1 251534Z 30005KT 27/M01 A3006 RMK A01 T02731013  RH  015%=      5-min Rain = 0
KSB1 251535Z 30008KT 28/M02 A3007 RMK A01 T02751015  RH  015%=      5-min Rain = 0
KSB1 251536Z 30009KT 27/M02 A3007 RMK A01 T02741018  RH  015%=      5-min Rain = 0
KSB1 251537Z 28005KT 27/M02 A3007 RMK A01 T02721018  RH  015%=      5-min Rain = 0
KSB1 251538Z 29008KT 27/M02 A3007 RMK A01 T02711016  RH  015%=      5-min Rain = 0
KSB1 251539Z 28008KT 27/M02 A3007 RMK A01 T02721020  RH  015%=      5-min Rain = 0
KSB1 251540Z 28005KT 27/M02 A3007 RMK A01 T02711020  RH  015%=      5-min Rain = 0
KSB1 251541Z 30007KT 27/M02 A3007 RMK A01 T02701019  RH  015%=      5-min Rain = 0
KSB1 251542Z 29006KT 27/M02 A3007 RMK A01 T02701022  RH  015%=      5-min Rain = 0
KSB1 251543Z 31005KT 27/M02 A3007 RMK A01 T02681021  RH  015%=      5-min Rain = 0
KSB1 251544Z 33006KT 27/M02 A3007 RMK A01 T02681018  RH  015%=      5-min Rain = 0
KSB1 251545Z 31005KT 27/M02 A3007 RMK A01 T02691020  RH  015%=      5-min Rain = 0
KSB1 251546Z 28003KT 27/M02 A3007 RMK A01 T02701019  RH  015%=      5-min Rain = 0
KSB1 251547Z 26006KT 27/M02 A3007 RMK A01 T02701018  RH  015%=      5-min Rain = 0
KSB1 251548Z 27009KT 27/M02 A3007 RMK A01 T02711015  RH  015%=      5-min Rain = 0
KSB1 251549Z 26010KT 27/M02 A3007 RMK A01 T02731017  RH  015%=      5-min Rain = 0
KSB1 251550Z 26010KT 27/M02 A3007 RMK A01 T02731017  RH  015%=      5-min Rain = 0
KSB1 251551Z 26008KT 27/M02 A3007 RMK A01 T02721018  RH  015%=      5-min Rain = 0
KSB1 251552Z 26007KT 27/M02 A3007 RMK A01 T02711018  RH  015%=      5-min Rain = 0
KSB1 251553Z 22007KT 27/M02 A3007 RMK A01 T02701018  RH  015%=      5-min Rain = 0
KSB1 251554Z 25007KT 27/M02 A3007 RMK A01 T02691020  RH  015%=      5-min Rain = 0
KSB1 251555Z 29010KT 27/M02 A3007 RMK A01 T02691016  RH  015%=      5-min Rain = 0
KSB1 251556Z 28010KT 27/M02 A3007 RMK A01 T02731016  RH  015%=      5-min Rain = 0
KSB1 251557Z 27008KT 27/M02 A3007 RMK A01 T02741017  RH  015%=      5-min Rain = 0
KSB1 251558Z 28004KT 27/M02 A3007 RMK A01 T02731017  RH  015%=      5-min Rain = 0
KSB1 251559Z 28006KT 27/M02 A3007 RMK A01 T02741016  RH  015%=      5-min Rain = 0
KSB1 251600Z 28008KT 28/M02 A3007 RMK A01 T02751017  RH  015%=      5-min Rain = 0
KSB1 251601Z 26006KT 28/M02 A3007 RMK A01 T02751017  RH  015%=      5-min Rain = 0
KSB1 251602Z 27004KT 27/M02 A3007 RMK A01 T02721019  RH  015%=      5-min Rain = 0
KSB1 251603Z 27003KT 27/M02 A3007 RMK A01 T02711020  RH  015%=      5-min Rain = 0
KSB1 251604Z 30003KT 27/M02 A3006 RMK A01 T02701020  RH  015%=      5-min Rain = 0
KSB1 251605Z 32002KT 27/M02 A3006 RMK A01 T02691020  RH  015%=      5-min Rain = 0
KSB1 251606Z 28003G9KT 27/M02 A3006 RMK A01 T02691018  RH  015%=      5-min Rain = 0
KSB1 251607Z 30007KT 27/M02 A3006 RMK A01 T02721017  RH  015%=      5-min Rain = 0
KSB1 251608Z 29008KT 27/M02 A3006 RMK A01 T02741018  RH  015%=      5-min Rain = 0
KSB1 251609Z 26008KT 28/M02 A3006 RMK A01 T02751017  RH  015%=      5-min Rain = 0
KSB1 251610Z 26006KT 28/M02 A3006 RMK A01 T02751018  RH  015%=      5-min Rain = 0
KSB1 251611Z 28007KT 28/M02 A3006 RMK A01 T02761016  RH  015%=      5-min Rain = 0
KSB1 251612Z 29012KT 28/M02 A3006 RMK A01 T02781017  RH  014%=      5-min Rain = 0
KSB1 251613Z 29006KT 28/M02 A3006 RMK A01 T02771019  RH  014%=      5-min Rain = 0
KSB1 251614Z 26005KT 28/M02 A3006 RMK A01 T02751019  RH  014%=      5-min Rain = 0
KSB1 251615Z 28007KT 28/M02 A3006 RMK A01 T02761017  RH  015%=      5-min Rain = 0
KSB1 251616Z 28006KT 28/M02 A3006 RMK A01 T02771017  RH  015%=      5-min Rain = 0
KSB1 251617Z 27003KT 28/M02 A3006 RMK A01 T02771018  RH  014%=      5-min Rain = 0
KSB1 251618Z 26009G15KT 28/M02 A3006 RMK A01 T02761017  RH  015%=      5-min Rain = 0
KSB1 251619Z 28011KT 28/M02 A3006 RMK A01 T02771016  RH  015%=      5-min Rain = 0
KSB1 251620Z 29009KT 28/M02 A3006 RMK A01 T02781016  RH  015%=      5-min Rain = 0
KSB1 251621Z 27008KT 28/M02 A3006 RMK A01 T02811015  RH  014%=      5-min Rain = 0
KSB1 251622Z 27007KT 28/M02 A3006 RMK A01 T02811016  RH  014%=      5-min Rain = 0
KSB1 251623Z 27009KT 28/M02 A3006 RMK A01 T02801016  RH  014%=      5-min Rain = 0
KSB1 251624Z 25007KT 28/M02 A3006 RMK A01 T02791017  RH  014%=      5-min Rain = 0
KSB1 251625Z 29005KT 28/M02 A3006 RMK A01 T02781015  RH  015%=      5-min Rain = 0
KSB1 251626Z 29005KT 28/M02 A3006 RMK A01 T02791017  RH  014%=      5-min Rain = 0
KSB1 251627Z 26004KT 28/M02 A3006 RMK A01 T02791017  RH  014%=      5-min Rain = 0
KSB1 251628Z 28005KT 28/M01 A3006 RMK A01 T02791014  RH  015%=      5-min Rain = 0
KSB1 251629Z 28007KT 28/M01 A3006 RMK A01 T02821013  RH  015%=      5-min Rain = 0
KSB1 251630Z 25006KT 28/M02 A3006 RMK A01 T02821015  RH  014%=      5-min Rain = 0
KSB1 251631Z 24008KT 28/M01 A3006 RMK A01 T02821013  RH  015%=      5-min Rain = 0
KSB1 251632Z 23008KT 28/M01 A3006 RMK A01 T02831011  RH  015%=      5-min Rain = 0
KSB1 251633Z 27011KT 28/M01 A3006 RMK A01 T02841013  RH  014%=      5-min Rain = 0
KSB1 251634Z 25009KT 28/M02 A3006 RMK A01 T02841017  RH  014%=      5-min Rain = 0
KSB1 251635Z 24007KT 28/M02 A3006 RMK A01 T02821017  RH  014%=      5-min Rain = 0
KSB1 251636Z 24009KT 28/M02 A3006 RMK A01 T02811016  RH  014%=      5-min Rain = 0
KSB1 251637Z 25006KT 28/M02 A3006 RMK A01 T02801017  RH  014%=      5-min Rain = 0
KSB1 251638Z 25003KT 28/M01 A3006 RMK A01 T02801014  RH  015%=      5-min Rain = 0
KSB1 251639Z 23004KT 28/M02 A3006 RMK A01 T02821016  RH  014%=      5-min Rain = 0
KSB1 251640Z 25007G12KT 28/M01 A3006 RMK A01 T02821013  RH  014%=      5-min Rain = 0
KSB1 251641Z 27009KT 28/M01 A3006 RMK A01 T02831014  RH  014%=      5-min Rain = 0
KSB1 251642Z 30007KT 28/M01 A3006 RMK A01 T02831012  RH  015%=      5-min Rain = 0
KSB1 251643Z 28009KT 29/M01 A3006 RMK A01 T02851010  RH  015%=      5-min Rain = 0
KSB1 251644Z 27009KT 29/M01 A3006 RMK A01 T02861012  RH  014%=      5-min Rain = 0
KSB1 251645Z 28007KT 28/M01 A3006 RMK A01 T02841012  RH  014%=      5-min Rain = 0
KSB1 251646Z 26007KT 28/M02 A3006 RMK A01 T02841015  RH  014%=      5-min Rain = 0
KSB1 251647Z 27005KT 28/M02 A3006 RMK A01 T02821015  RH  014%=      5-min Rain = 0
KSB1 251648Z 26004KT 28/M01 A3006 RMK A01 T02791014  RH  015%=      5-min Rain = 0
KSB1 251649Z 27007KT 28/M01 A3006 RMK A01 T02801010  RH  015%=      5-min Rain = 0
KSB1 251650Z 27008KT 28/M01 A3006 RMK A01 T02831010  RH  015%=      5-min Rain = 0
KSB1 251651Z 29009KT 29/M01 A3006 RMK A01 T02851009  RH  015%=      5-min Rain = 0
KSB1 251652Z 30009KT 29/M01 A3006 RMK A01 T02861010  RH  014%=      5-min Rain = 0
KSB1 251653Z 29009KT 29/M01 A3006 RMK A01 T02861011  RH  014%=      5-min Rain = 0
KSB1 251654Z 28008KT 29/M01 A3006 RMK A01 T02861009  RH  015%=      5-min Rain = 0
KSB1 251655Z 23009G14KT 29/M00 A3006 RMK A01 T02881002  RH  015%=      5-min Rain = 0
KSB1 251656Z 25012G17KT 29/00 A3006 RMK A01 T029300-0  RH  015%=      5-min Rain = 0
KSB1 251657Z 24014KT 29/M01 A3006 RMK A01 T02931005  RH  014%=      5-min Rain = 0
KSB1 251658Z 25010KT 29/M00 A3006 RMK A01 T02901003  RH  015%=      5-min Rain = 0
KSB1 251659Z 24009KT 29/M01 A3006 RMK A01 T02901005  RH  015%=      5-min Rain = 0
KSB1 251700Z 24012KT 29/M01 A3006 RMK A01 T02881009  RH  014%=      5-min Rain = 0
KSB1 251701Z 24011KT 29/M01 A3006 RMK A01 T02851006  RH  015%=      5-min Rain = 0
KSB1 251702Z 24012KT 29/M00 A3006 RMK A01 T02871002  RH  015%=      5-min Rain = 0
KSB1 251703Z 24009KT 29/M00 A3005 RMK A01 T02911004  RH  015%=      5-min Rain = 0
KSB1 251704Z 25016KT 29/M00 A3005 RMK A01 T02911001  RH  015%=      5-min Rain = 0
KSB1 251705Z 25016KT 29/M00 A3006 RMK A01 T02901004  RH  015%=      5-min Rain = 0
KSB1 251706Z 24014KT 29/M00 A3006 RMK A01 T02881004  RH  015%=      5-min Rain = 0
KSB1 251707Z 24011KT 29/M00 A3005 RMK A01 T02891001  RH  015%=      5-min Rain = 0
KSB1 251708Z 25015KT 29/00 A3005 RMK A01 T02920000  RH  015%=      5-min Rain = 0
KSB1 251709Z 24016KT 29/M00 A3005 RMK A01 T02941004  RH  015%=      5-min Rain = 0
KSB1 251710Z 24015KT 29/M00 A3006 RMK A01 T02911004  RH  015%=      5-min Rain = 0
KSB1 251711Z 24014KT 29/M00 A3005 RMK A01 T02911004  RH  015%=      5-min Rain = 0
KSB1 251712Z 24013KT 29/M00 A3006 RMK A01 T02911003  RH  015%=      5-min Rain = 0
KSB1 251713Z 24010KT 29/M00 A3006 RMK A01 T02921003  RH  015%=      5-min Rain = 0
KSB1 251714Z 23009KT 29/M00 A3005 RMK A01 T02921002  RH  015%=      5-min Rain = 0
KSB1 251715Z 22006KT 29/M00 A3005 RMK A01 T02911002  RH  015%=      5-min Rain = 0
KSB1 251716Z 22010KT 29/M00 A3005 RMK A01 T02911002  RH  015%=      5-min Rain = 0
KSB1 251717Z 25014G20KT 29/M00 A3005 RMK A01 T02911002  RH  015%=      5-min Rain = 0
KSB1 251718Z 26012KT 29/M01 A3005 RMK A01 T02921006  RH  014%=      5-min Rain = 0
KSB1 251719Z 25013KT 29/M01 A3005 RMK A01 T02901007  RH  014%=      5-min Rain = 0
KSB1 251720Z 25011G16KT 29/M01 A3005 RMK A01 T02911006  RH  015%=      5-min Rain = 0
KSB1 251721Z 24013KT 29/M01 A3005 RMK A01 T02931005  RH  014%=      5-min Rain = 0
KSB1 251722Z 25010KT 29/M01 A3005 RMK A01 T02911009  RH  014%=      5-min Rain = 0
KSB1 251723Z 24007KT 29/M01 A3005 RMK A01 T02891009  RH  014%=      5-min Rain = 0
KSB1 251724Z 22010KT 29/M00 A3005 RMK A01 T02881004  RH  015%=      5-min Rain = 0
KSB1 251725Z 23011KT 29/M00 A3005 RMK A01 T02921002  RH  015%=      5-min Rain = 0
KSB1 251726Z 24011KT 29/M00 A3005 RMK A01 T02931003  RH  015%=      5-min Rain = 0
KSB1 251727Z 26009KT 29/M01 A3005 RMK A01 T02931005  RH  014%=      5-min Rain = 0
KSB1 251728Z 26006KT 29/M01 A3005 RMK A01 T02921006  RH  014%=      5-min Rain = 0
KSB1 251729Z 26009G16KT 29/M00 A3005 RMK A01 T02911004  RH  015%=      5-min Rain = 0
KSB1 251730Z 25012KT 29/M01 A3005 RMK A01 T02921006  RH  014%=      5-min Rain = 0
KSB1 251731Z 25012KT 29/M01 A3005 RMK A01 T02911005  RH  015%=      5-min Rain = 0
KSB1 251732Z 28009KT 29/M00 A3005 RMK A01 T02931002  RH  015%=      5-min Rain = 0
KSB1 251733Z 27007KT 30/M01 A3005 RMK A01 T02961005  RH  014%=      5-min Rain = 0
KSB1 251734Z 26011G20KT 30/M00 A3005 RMK A01 T02961003  RH  014%=      5-min Rain = 0
KSB1 251735Z 22017G24KT 30/M00 A3005 RMK A01 T02971003  RH  014%=      5-min Rain = 0
KSB1 251736Z 21013KT 30/M00 A3005 RMK A01 T02981004  RH  014%=      5-min Rain = 0
KSB1 251737Z 23015G21KT 30/M01 A3005 RMK A01 T02971005  RH  014%=      5-min Rain = 0
KSB1 251738Z 21012KT 30/M01 A3005 RMK A01 T02971007  RH  014%=      5-min Rain = 0
KSB1 251739Z 22012KT 30/M01 A3005 RMK A01 T02991006  RH  014%=      5-min Rain = 0
KSB1 251740Z 22010KT 30/M01 A3005 RMK A01 T02971008  RH  014%=      5-min Rain = 0
KSB1 251741Z 23011KT 29/M01 A3005 RMK A01 T02931006  RH  014%=      5-min Rain = 0
KSB1 251742Z 24014KT 29/M01 A3005 RMK A01 T02931010  RH  014%=      5-min Rain = 0
KSB1 251743Z 21017KT 30/M01 A3005 RMK A01 T02971005  RH  014%=      5-min Rain = 0
KSB1 251744Z 21016KT 30/M01 A3005 RMK A01 T03001005  RH  014%=      5-min Rain = 0
KSB1 251745Z 21012KT 30/M01 A3005 RMK A01 T02971008  RH  014%=      5-min Rain = 0
KSB1 251746Z 21012KT 30/M01 A3005 RMK A01 T02971007  RH  014%=      5-min Rain = 0
KSB1 251747Z 22013KT 30/M01 A3005 RMK A01 T02981009  RH  014%=      5-min Rain = 0
KSB1 251748Z 23012KT 29/M01 A3005 RMK A01 T02941010  RH  014%=      5-min Rain = 0
KSB1 251749Z 22011KT 29/M01 A3005 RMK A01 T02911010  RH  014%=      5-min Rain = 0
KSB1 251750Z 22008KT 29/M01 A3005 RMK A01 T02891008  RH  014%=      5-min Rain = 0
KSB1 251751Z 24004KT 29/M01 A3005 RMK A01 T02891011  RH  014%=      5-min Rain = 0
KSB1 251752Z 32002KT 29/M01 A3005 RMK A01 T02881011  RH  014%=      5-min Rain = 0
KSB1 251753Z 17003KT 29/M01 A3005 RMK A01 T02901007  RH  014%=      5-min Rain = 0
KSB1 251754Z 20005KT 29/M01 A3005 RMK A01 T02921009  RH  014%=      5-min Rain = 0
KSB1 251755Z 22004KT 29/M01 A3005 RMK A01 T02921008  RH  014%=      5-min Rain = 0
KSB1 251756Z 20004G10KT 29/M01 A3005 RMK A01 T02931008  RH  014%=      5-min Rain = 0
KSB1 251757Z 20011KT 29/M01 A3005 RMK A01 T02931009  RH  014%=      5-min Rain = 0
KSB1 251758Z 21014KT 30/M01 A3005 RMK A01 T02951013  RH  013%=      5-min Rain = 0
KSB1 251759Z 20009KT 30/M02 A3005 RMK A01 T02961015  RH  013%=      5-min Rain = 0
KSB1 251800Z 20009KT 30/M01 A3005 RMK A01 T02961012  RH  014%=      5-min Rain = 0
KSB1 251801Z 21009KT 30/M01 A3005 RMK A01 T02961013  RH  013%=      5-min Rain = 0
KSB1 251802Z 21007KT 30/M01 A3005 RMK A01 T02981010  RH  014%=      5-min Rain = 0
KSB1 251803Z 22008G14KT 30/M01 A3005 RMK A01 T02991010  RH  013%=      5-min Rain = 0
KSB1 251804Z 21010KT 30/M01 A3005 RMK A01 T03001008  RH  014%=      5-min Rain = 0
KSB1 251805Z 22006KT 30/M01 A3005 RMK A01 T02971012  RH  013%=      5-min Rain = 0
KSB1 251806Z 23006KT 30/M01 A3005 RMK A01 T02951008  RH  014%=      5-min Rain = 0
KSB1 251807Z 25006KT 30/M01 A3005 RMK A01 T02981007  RH  014%=      5-min Rain = 0
KSB1 251808Z 26005KT 30/M01 A3005 RMK A01 T02991010  RH  013%=      5-min Rain = 0
KSB1 251809Z 28008KT 30/M01 A3005 RMK A01 T02981010  RH  014%=      5-min Rain = 0
KSB1 251810Z 24009KT 30/M01 A3005 RMK A01 T02971009  RH  014%=      5-min Rain = 0
KSB1 251811Z 24009KT 30/M01 A3004 RMK A01 T02971008  RH  014%=      5-min Rain = 0
KSB1 251812Z 24008KT 30/M01 A3004 RMK A01 T02971007  RH  014%=      5-min Rain = 0
KSB1 251813Z 23008G15KT 30/M01 A3004 RMK A01 T02951008  RH  014%=      5-min Rain = 0
KSB1 251814Z 25009KT 30/M01 A3004 RMK A01 T02951008  RH  014%=      5-min Rain = 0
KSB1 251815Z 28007KT 29/M01 A3004 RMK A01 T02941009  RH  014%=      5-min Rain = 0
KSB1 251816Z 28004KT 29/M01 A3004 RMK A01 T02921010  RH  014%=      5-min Rain = 0
KSB1 251817Z 26005KT 29/M01 A3004 RMK A01 T02921008  RH  014%=      5-min Rain = 0
KSB1 251818Z 24004KT 29/M01 A3004 RMK A01 T02921008  RH  014%=      5-min Rain = 0
KSB1 251819Z 23003KT 29/M01 A3004 RMK A01 T02921007  RH  014%=      5-min Rain = 0
KSB1 251820Z 22007G13KT 30/M00 A3004 RMK A01 T02951003  RH  015%=      5-min Rain = 0
KSB1 251821Z 21009KT 30/M01 A3004 RMK A01 T02991005  RH  014%=      5-min Rain = 0
KSB1 251822Z 20011KT 31/M01 A3004 RMK A01 T03051006  RH  013%=      5-min Rain = 0
KSB1 251823Z 22010KT 30/M01 A3004 RMK A01 T03041013  RH  013%=      5-min Rain = 0
KSB1 251824Z 22012G18KT 30/M02 A3004 RMK A01 T03001015  RH  013%=      5-min Rain = 0
KSB1 251825Z 19013KT 30/M01 A3004 RMK A01 T02981013  RH  013%=      5-min Rain = 0
KSB1 251826Z 20013KT 30/M01 A3004 RMK A01 T03001013  RH  013%=      5-min Rain = 0
KSB1 251827Z 20012KT 30/M01 A3004 RMK A01 T02991013  RH  013%=      5-min Rain = 0
KSB1 251828Z 20010KT 30/M01 A3004 RMK A01 T03001009  RH  013%=      5-min Rain = 0
KSB1 251829Z 20009G14KT 30/M01 A3004 RMK A01 T03001011  RH  013%=      5-min Rain = 0
KSB1 251830Z 20006KT 30/M01 A3004 RMK A01 T02971014  RH  013%=      5-min Rain = 0
KSB1 251831Z 22008KT 30/M01 A3004 RMK A01 T02951011  RH  014%=      5-min Rain = 0
KSB1 251832Z 21013KT 30/M01 A3004 RMK A01 T03011006  RH  014%=      5-min Rain = 0
KSB1 251833Z 21009KT 30/M01 A3004 RMK A01 T03031007  RH  013%=      5-min Rain = 0
KSB1 251834Z 23009KT 31/M01 A3004 RMK A01 T03051008  RH  013%=      5-min Rain = 0
KSB1 251835Z 25007KT 30/M01 A3004 RMK A01 T03041009  RH  013%=      5-min Rain = 0
KSB1 251836Z 22008KT 30/M01 A3004 RMK A01 T03011010  RH  013%=      5-min Rain = 0
KSB1 251837Z 20009KT 30/M01 A3004 RMK A01 T03011011  RH  013%=      5-min Rain = 0
KSB1 251838Z 17007KT 30/M01 A3004 RMK A01 T02991014  RH  013%=      5-min Rain = 0
KSB1 251839Z 17005KT 30/M01 A3003 RMK A01 T02971012  RH  013%=      5-min Rain = 0
KSB1 251840Z 19007KT 30/M01 A3003 RMK A01 T02991009  RH  013%=      5-min Rain = 0
KSB1 251841Z 17012KT 30/M01 A3003 RMK A01 T03021011  RH  013%=      5-min Rain = 0
KSB1 251842Z 16010KT 30/M01 A3003 RMK A01 T03041011  RH  013%=      5-min Rain = 0
KSB1 251843Z 16009G17KT 31/M01 A3003 RMK A01 T03051011  RH  013%=      5-min Rain = 0
KSB1 251844Z 16015KT 31/M01 A3003 RMK A01 T03071011  RH  013%=      5-min Rain = 0
KSB1 251845Z 16014KT 31/M01 A3003 RMK A01 T03081012  RH  013%=      5-min Rain = 0
KSB1 251846Z 16011KT 31/M02 A3003 RMK A01 T03061015  RH  012%=      5-min Rain = 0
KSB1 251847Z 15007KT 30/M01 A3003 RMK A01 T03031012  RH  013%=      5-min Rain = 0
KSB1 251848Z 15005KT 30/M02 A3003 RMK A01 T03031016  RH  013%=      5-min Rain = 0
KSB1 251849Z 19009G15KT 30/M01 A3003 RMK A01 T03001014  RH  013%=      5-min Rain = 0
KSB1 251850Z 20012KT 30/M01 A3003 RMK A01 T03021011  RH  013%=      5-min Rain = 0
KSB1 251851Z 21011KT 30/M01 A3003 RMK A01 T03021008  RH  013%=      5-min Rain = 0
KSB1 251852Z 21015KT 31/M01 A3003 RMK A01 T03051007  RH  013%=      5-min Rain = 0
KSB1 251853Z 20010KT 30/M01 A3003 RMK A01 T03041010  RH  013%=      5-min Rain = 0
KSB1 251854Z 21011KT 30/M01 A3003 RMK A01 T03021011  RH  013%=      5-min Rain = 0
KSB1 251855Z 19010KT 30/M01 A3003 RMK A01 T02991011  RH  013%=      5-min Rain = 0
KSB1 251856Z 17008KT 30/M01 A3002 RMK A01 T02991012  RH  013%=      5-min Rain = 0
KSB1 251857Z 15008KT 30/M01 A3002 RMK A01 T03001011  RH  013%=      5-min Rain = 0
KSB1 251858Z 16007KT 30/M01 A3002 RMK A01 T03001012  RH  013%=      5-min Rain = 0
KSB1 251859Z 14005KT 30/M01 A3002 RMK A01 T03011011  RH  013%=      5-min Rain = 0
KSB1 251900Z 18006KT 30/M01 A3002 RMK A01 T03031010  RH  013%=      5-min Rain = 0
KSB1 251901Z 18010KT 30/M01 A3002 RMK A01 T03031010  RH  013%=      5-min Rain = 0
KSB1 251902Z 19012KT 30/M01 A3002 RMK A01 T03041009  RH  013%=      5-min Rain = 0
KSB1 251903Z 23009KT 31/M01 A3002 RMK A01 T03061008  RH  013%=      5-min Rain = 0
KSB1 251904Z 20008KT 31/M01 A3002 RMK A01 T03071007  RH  013%=      5-min Rain = 0
KSB1 251905Z 19005KT 31/M01 A3002 RMK A01 T03061014  RH  013%=      5-min Rain = 0
KSB1 251906Z 18008KT 30/M01 A3002 RMK A01 T03031011  RH  013%=      5-min Rain = 0
KSB1 251907Z 18008KT 31/M01 A3002 RMK A01 T03081011  RH  013%=      5-min Rain = 0
KSB1 251908Z 18009KT 31/M01 A3002 RMK A01 T03101010  RH  013%=      5-min Rain = 0
KSB1 251909Z 18010KT 31/M01 A3002 RMK A01 T03121012  RH  012%=      5-min Rain = 0
KSB1 251910Z 20009KT 31/M02 A3002 RMK A01 T03091016  RH  012%=      5-min Rain = 0
KSB1 251911Z 21005G10KT 31/M02 A3002 RMK A01 T03051017  RH  012%=      5-min Rain = 0
KSB1 251912Z 21003KT 30/M02 A3002 RMK A01 T03021018  RH  013%=      5-min Rain = 0
KSB1 251913Z 25003KT 30/M01 A3002 RMK A01 T03031014  RH  013%=      5-min Rain = 0
KSB1 251914Z 29004KT 31/M01 A3002 RMK A01 T03061014  RH  013%=      5-min Rain = 0
KSB1 251915Z 32003KT 31/M02 A3002 RMK A01 T03051016  RH  012%=      5-min Rain = 0
KSB1 251916Z 34002KT 30/M01 A3002 RMK A01 T03041014  RH  013%=      5-min Rain = 0
KSB1 251917Z 24001KT 31/M01 A3002 RMK A01 T03061014  RH  013%=      5-min Rain = 0
KSB1 251918Z 16004KT 31/M01 A3002 RMK A01 T03081014  RH  012%=      5-min Rain = 0
KSB1 251919Z 19006G11KT 31/M02 A3001 RMK A01 T03091017  RH  012%=      5-min Rain = 0
KSB1 251920Z 18008KT 31/M02 A3002 RMK A01 T03091016  RH  012%=      5-min Rain = 0
KSB1 251921Z 16010KT 31/M02 A3002 RMK A01 T03091017  RH  012%=      5-min Rain = 0
KSB1 251922Z 17008KT 31/M02 A3001 RMK A01 T03091019  RH  012%=      5-min Rain = 0
KSB1 251923Z 16006KT 31/M02 A3001 RMK A01 T03081020  RH  012%=      5-min Rain = 0
KSB1 251924Z 14005KT 31/M02 A3001 RMK A01 T03081017  RH  012%=      5-min Rain = 0
KSB1 251925Z 16004KT 31/M02 A3001 RMK A01 T03111015  RH  012%=      5-min Rain = 0
KSB1 251926Z 20010KT 31/M02 A3001 RMK A01 T03131018  RH  012%=      5-min Rain = 0
KSB1 251927Z 22011KT 31/M02 A3001 RMK A01 T03141018  RH  012%=      5-min Rain = 0
KSB1 251928Z 22011KT 31/M02 A3001 RMK A01 T03141018  RH  012%=      5-min Rain = 0
KSB1 251929Z 23010KT 31/M02 A3001 RMK A01 T03141017  RH  012%=      5-min Rain = 0
KSB1 251930Z 24014KT 31/M02 A3001 RMK A01 T03141017  RH  012%=      5-min Rain = 0
KSB1 251931Z 24013KT 31/M02 A3001 RMK A01 T03121019  RH  012%=      5-min Rain = 0
KSB1 251932Z 25011KT 31/M02 A3001 RMK A01 T03111017  RH  012%=      5-min Rain = 0
KSB1 251933Z 24012G17KT 31/M02 A3001 RMK A01 T03131015  RH  012%=      5-min Rain = 0
KSB1 251934Z 23014KT 32/M01 A3001 RMK A01 T03181014  RH  012%=      5-min Rain = 0
KSB1 251935Z 24010KT 31/M02 A3001 RMK A01 T03141020  RH  011%=      5-min Rain = 0
KSB1 251936Z 24009KT 31/M02 A3001 RMK A01 T03111021  RH  012%=      5-min Rain = 0
KSB1 251937Z 20010KT 31/M02 A3001 RMK A01 T03111019  RH  012%=      5-min Rain = 0
KSB1 251938Z 20013G18KT 31/M02 A3001 RMK A01 T03121023  RH  011%=      5-min Rain = 0
KSB1 251939Z 19016KT 31/M02 A3001 RMK A01 T03131023  RH  011%=      5-min Rain = 0
KSB1 251940Z 18015KT 32/M02 A3001 RMK A01 T03191021  RH  011%=      5-min Rain = 0
KSB1 251941Z 21012KT 32/M02 A3001 RMK A01 T03231022  RH  011%=      5-min Rain = 0
KSB1 251942Z 20007KT 32/M03 A30 RMK A01 T03181028  RH  011%=      5-min Rain = 0
KSB1 251943Z 20006KT 31/M03 A30 RMK A01 T03101030  RH  011%=      5-min Rain = 0
KSB1 251944Z 19011KT 31/M02 A30 RMK A01 T03091024  RH  011%=      5-min Rain = 0
KSB1 251945Z 18010KT 31/M02 A30 RMK A01 T03141023  RH  011%=      5-min Rain = 0
KSB1 251946Z 20015G20KT 32/M02 A30 RMK A01 T03151024  RH  011%=      5-min Rain = 0
KSB1 251947Z 20014KT 31/M02 A30 RMK A01 T03131024  RH  011%=      5-min Rain = 0
KSB1 251948Z 22011KT 31/M02 A30 RMK A01 T03141023  RH  011%=      5-min Rain = 0
KSB1 251949Z 21007KT 31/M02 A30 RMK A01 T03121024  RH  011%=      5-min Rain = 0
KSB1 251950Z 23007KT 31/M03 A30 RMK A01 T03101025  RH  011%=      5-min Rain = 0
KSB1 251951Z 22008KT 31/M02 A30 RMK A01 T03101022  RH  012%=      5-min Rain = 0
KSB1 251952Z 19011KT 31/M02 A30 RMK A01 T03141022  RH  011%=      5-min Rain = 0
KSB1 251953Z 18011KT 31/M03 A30 RMK A01 T03141028  RH  011%=      5-min Rain = 0
KSB1 251954Z 18013G18KT 31/M03 A30 RMK A01 T03131029  RH  011%=      5-min Rain = 0
KSB1 251955Z 18011KT 32/M03 A30 RMK A01 T03161025  RH  011%=      5-min Rain = 0
KSB1 251956Z 19008KT 32/M02 A30 RMK A01 T03211024  RH  011%=      5-min Rain = 0
KSB1 251957Z 16006KT 32/M03 A30 RMK A01 T03161030  RH  011%=      5-min Rain = 0
KSB1 251958Z 18008KT 31/M03 A2999 RMK A01 T03141027  RH  011%=      5-min Rain = 0
KSB1 251959Z 19008KT 31/M03 A2999 RMK A01 T03141029  RH  011%=      5-min Rain = 0
KSB1 252000Z 20008KT 31/M03 A2999 RMK A01 T03131025  RH  011%=      5-min Rain = 0
KSB1 252001Z 23012KT 32/M02 A2999 RMK A01 T03191022  RH  011%=      5-min Rain = 0
KSB1 252002Z 23012KT 32/M02 A2999 RMK A01 T03191024  RH  011%=      5-min Rain = 0
KSB1 252003Z 21012KT 32/M02 A2999 RMK A01 T03171024  RH  011%=      5-min Rain = 0
KSB1 252004Z 22010KT 32/M02 A2999 RMK A01 T03161022  RH  011%=      5-min Rain = 0
KSB1 252005Z 21013KT 32/M02 A2999 RMK A01 T03181020  RH  011%=      5-min Rain = 0
KSB1 252006Z 22016KT 32/M02 A2999 RMK A01 T03201024  RH  011%=      5-min Rain = 0
KSB1 252007Z 23014KT 32/M03 A2999 RMK A01 T03201025  RH  011%=      5-min Rain = 0
KSB1 252008Z 20019KT 32/M02 A2999 RMK A01 T03211024  RH  011%=      5-min Rain = 0
KSB1 252009Z 21015G20KT 32/M03 A2999 RMK A01 T03231026  RH  010%=      5-min Rain = 0
KSB1 252010Z 21010KT 32/M03 A2999 RMK A01 T03211028  RH  010%=      5-min Rain = 0
KSB1 252011Z 21010KT 32/M03 A2999 RMK A01 T03191025  RH  011%=      5-min Rain = 0
KSB1 252012Z 21010KT 32/M03 A2999 RMK A01 T03201027  RH  011%=      5-min Rain = 0
KSB1 252013Z 21011KT 32/M03 A2999 RMK A01 T03181027  RH  011%=      5-min Rain = 0
KSB1 252014Z 22011KT 32/M03 A2999 RMK A01 T03201028  RH  010%=      5-min Rain = 0
KSB1 252015Z 22012KT 32/M03 A2999 RMK A01 T03191026  RH  011%=      5-min Rain = 0
KSB1 252016Z 23010KT 32/M03 A2999 RMK A01 T03191033  RH  010%=      5-min Rain = 0
KSB1 252017Z 24007KT 31/M04 A2999 RMK A01 T03141035  RH  010%=      5-min Rain = 0
KSB1 252018Z 25010KT 31/M04 A2999 RMK A01 T03141035  RH  010%=      5-min Rain = 0
KSB1 252019Z 26009G14KT 32/M04 A2999 RMK A01 T03151036  RH  010%=      5-min Rain = 0
KSB1 252020Z 23004KT 31/M04 A2999 RMK A01 T03141035  RH  010%=      5-min Rain = 0
KSB1 252021Z 22008KT 32/M03 A2998 RMK A01 T03161030  RH  011%=      5-min Rain = 0
KSB1 252022Z 21008KT 32/M03 A2999 RMK A01 T03181030  RH  010%=      5-min Rain = 0
KSB1 252023Z 21010KT 32/M03 A2999 RMK A01 T03191032  RH  010%=      5-min Rain = 0
KSB1 252024Z 20014KT 32/M03 A2999 RMK A01 T03211031  RH  010%=      5-min Rain = 0
KSB1 252025Z 18014KT 32/M03 A2999 RMK A01 T03241034  RH  010%=      5-min Rain = 0
KSB1 252026Z 17015KT 32/M04 A2999 RMK A01 T03241038  RH  010%=      5-min Rain = 0
KSB1 252027Z 18013KT 32/M04 A2998 RMK A01 T03231040  RH  009%=      5-min Rain = 0
KSB1 252028Z 17012KT 32/M04 A2998 RMK A01 T03211041  RH  009%=      5-min Rain = 0
KSB1 252029Z 18010KT 32/M04 A2998 RMK A01 T03201038  RH  010%=      5-min Rain = 0
KSB1 252030Z 19009G15KT 32/M04 A2998 RMK A01 T03221036  RH  010%=      5-min Rain = 0
KSB1 252031Z 20016G21KT 33/M03 A2999 RMK A01 T03271030  RH  010%=      5-min Rain = 0
KSB1 252032Z 20009G14KT 33/M03 A2998 RMK A01 T03251034  RH  010%=      5-min Rain = 0
KSB1 252033Z 20010KT 32/M03 A2998 RMK A01 T03221032  RH  010%=      5-min Rain = 0
KSB1 252034Z 19018KT 33/M03 A2998 RMK A01 T03251033  RH  010%=      5-min Rain = 0
KSB1 252035Z 19022KT 33/M04 A2998 RMK A01 T03261038  RH  009%=      5-min Rain = 0
KSB1 252036Z 19020KT 32/M04 A2998 RMK A01 T03231037  RH  010%=      5-min Rain = 0
KSB1 252037Z 19020G25KT 32/M04 A2998 RMK A01 T03221038  RH  010%=      5-min Rain = 0
KSB1 252038Z 19019KT 32/M04 A2999 RMK A01 T03231039  RH  009%=      5-min Rain = 0
KSB1 252039Z 19012KT 32/M04 A2998 RMK A01 T03211041  RH  009%=      5-min Rain = 0
KSB1 252040Z 20015KT 32/M04 A2998 RMK A01 T03191041  RH  010%=      5-min Rain = 0
KSB1 252041Z 20012KT 32/M04 A2998 RMK A01 T03191042  RH  010%=      5-min Rain = 0
KSB1 252042Z 18008KT 32/M04 A2998 RMK A01 T03181043  RH  009%=      5-min Rain = 0
KSB1 252043Z 15007KT 32/M04 A2998 RMK A01 T03171044  RH  009%=      5-min Rain = 0
KSB1 252044Z 16005KT 32/M04 A2998 RMK A01 T03171043  RH  010%=      5-min Rain = 0
KSB1 252045Z 23005G10KT 32/M04 A2998 RMK A01 T03171041  RH  010%=      5-min Rain = 0
KSB1 252046Z 22012KT 32/M04 A2998 RMK A01 T03191038  RH  010%=      5-min Rain = 0
KSB1 252047Z 22013KT 32/M04 A2998 RMK A01 T03241035  RH  010%=      5-min Rain = 0
KSB1 252048Z 23013KT 32/M04 A2998 RMK A01 T03231040  RH  009%=      5-min Rain = 0
KSB1 252049Z 22009KT 32/M04 A2998 RMK A01 T03201041  RH  009%=      5-min Rain = 0
KSB1 252050Z 22006KT 32/M04 A2998 RMK A01 T03161042  RH  010%=      5-min Rain = 0
KSB1 252051Z 19005KT 32/M04 A2998 RMK A01 T03181038  RH  010%=      5-min Rain = 0
KSB1 252052Z 19005KT 32/M04 A2998 RMK A01 T03201042  RH  009%=      5-min Rain = 0
KSB1 252053Z 19012G22KT 32/M04 A2998 RMK A01 T03191041  RH  010%=      5-min Rain = 0
KSB1 252054Z 19017G22KT 32/M04 A2997 RMK A01 T03231036  RH  010%=      5-min Rain = 0
KSB1 252055Z 20019KT 33/M04 A2997 RMK A01 T03281035  RH  010%=      5-min Rain = 0
KSB1 252056Z 19018KT 33/M04 A2997 RMK A01 T03251038  RH  009%=      5-min Rain = 0
KSB1 252057Z 20020KT 33/M04 A2997 RMK A01 T03281038  RH  009%=      5-min Rain = 0
KSB1 252058Z 20018KT 33/M04 A2998 RMK A01 T03261039  RH  009%=      5-min Rain = 0
KSB1 252059Z 20017G22KT 33/M04 A2998 RMK A01 T03271037  RH  009%=      5-min Rain = 0
KSB1 252100Z 22012KT 33/M04 A2998 RMK A01 T03261037  RH  009%=      5-min Rain = 0
KSB1 252101Z 20014KT 33/M03 A2998 RMK A01 T03281033  RH  010%=      5-min Rain = 0
KSB1 252102Z 20017KT 33/M04 A2998 RMK A01 T03281041  RH  009%=      5-min Rain = 0
KSB1 252103Z 21012KT 32/M04 A2998 RMK A01 T03221041  RH  009%=      5-min Rain = 0
KSB1 252104Z 23007KT 32/M04 A2998 RMK A01 T03221036  RH  010%=      5-min Rain = 0
KSB1 252105Z 21007KT 32/M04 A2998 RMK A01 T03211037  RH  010%=      5-min Rain = 0
KSB1 252106Z 18009KT 32/M04 A2998 RMK A01 T03211038  RH  010%=      5-min Rain = 0
KSB1 252107Z 15009KT 32/M04 A2997 RMK A01 T03201038  RH  010%=      5-min Rain = 0
KSB1 252108Z 18010KT 32/M04 A2997 RMK A01 T03201037  RH  010%=      5-min Rain = 0
KSB1 252109Z 21010KT 32/M04 A2998 RMK A01 T03221035  RH  010%=      5-min Rain = 0
KSB1 252110Z 20009KT 32/M03 A2998 RMK A01 T03221034  RH  010%=      5-min Rain = 0
KSB1 252111Z 19005KT 32/M04 A2997 RMK A01 T03211036  RH  010%=      5-min Rain = 0
KSB1 252112Z 18004KT 32/M04 A2997 RMK A01 T03181039  RH  010%=      5-min Rain = 0
KSB1 252113Z 21008G13KT 32/M04 A2997 RMK A01 T03181035  RH  010%=      5-min Rain = 0
KSB1 252114Z 21007KT 32/M03 A2997 RMK A01 T03201030  RH  010%=      5-min Rain = 0
KSB1 252115Z 21010G18KT 32/M03 A2997 RMK A01 T03241029  RH  010%=      5-min Rain = 0
KSB1 252116Z 22012KT 33/M03 A2997 RMK A01 T03251028  RH  010%=      5-min Rain = 0
KSB1 252117Z 22011KT 33/M03 A2997 RMK A01 T03261028  RH  010%=      5-min Rain = 0
KSB1 252118Z 20011KT 33/M03 A2997 RMK A01 T03261028  RH  010%=      5-min Rain = 0
KSB1 252119Z 19016G21KT 33/M02 A2997 RMK A01 T03291023  RH  010%=      5-min Rain = 0
KSB1 252120Z 19017G24KT 33/M03 A2997 RMK A01 T03301027  RH  010%=      5-min Rain = 0
KSB1 252121Z 20021G27KT 33/M03 A2997 RMK A01 T03321028  RH  010%=      5-min Rain = 0
KSB1 252122Z 19019KT 33/M03 A2997 RMK A01 T03291031  RH  010%=      5-min Rain = 0
KSB1 252123Z 19020KT 33/M03 A2997 RMK A01 T03251034  RH  010%=      5-min Rain = 0
KSB1 252124Z 19017KT 32/M03 A2997 RMK A01 T03231033  RH  010%=      5-min Rain = 0
KSB1 252125Z 19013KT 32/M03 A2997 RMK A01 T03221031  RH  010%=      5-min Rain = 0
KSB1 252126Z 19014KT 32/M03 A2997 RMK A01 T03231030  RH  010%=      5-min Rain = 0
KSB1 252127Z 20011KT 32/M03 A2997 RMK A01 T03231031  RH  010%=      5-min Rain = 0
KSB1 252128Z 19009KT 32/M03 A2997 RMK A01 T03211032  RH  010%=      5-min Rain = 0
KSB1 252129Z 15007KT 32/M03 A2997 RMK A01 T03211032  RH  010%=      5-min Rain = 0
KSB1 252130Z 16008KT 32/M03 A2997 RMK A01 T03191033  RH  010%=      5-min Rain = 0
KSB1 252131Z 17007KT 32/M03 A2997 RMK A01 T03181031  RH  010%=      5-min Rain = 0
KSB1 252132Z 16009G16KT 32/M03 A2996 RMK A01 T03211028  RH  010%=      5-min Rain = 0
KSB1 252133Z 17015KT 33/M03 A2997 RMK A01 T03251027  RH  010%=      5-min Rain = 0
KSB1 252134Z 17009KT 33/M03 A2997 RMK A01 T03271030  RH  010%=      5-min Rain = 0
KSB1 252135Z 18012KT 33/M03 A2997 RMK A01 T03251028  RH  010%=      5-min Rain = 0
KSB1 252136Z 21015G20KT 33/M03 A2996 RMK A01 T03261029  RH  010%=      5-min Rain = 0
KSB1 252137Z 21013KT 32/M03 A2996 RMK A01 T03231032  RH  010%=      5-min Rain = 0
KSB1 252138Z 19017G22KT 32/M03 A2996 RMK A01 T03231028  RH  010%=      5-min Rain = 0
KSB1 252139Z 19014KT 32/M03 A2997 RMK A01 T03241031  RH  010%=      5-min Rain = 0
KSB1 252140Z 18010KT 32/M03 A2996 RMK A01 T03221032  RH  010%=      5-min Rain = 0
KSB1 252141Z 19007KT 32/M03 A2996 RMK A01 T03221029  RH  010%=      5-min Rain = 0
KSB1 252142Z 16007KT 33/M03 A2996 RMK A01 T03251028  RH  010%=      5-min Rain = 0
KSB1 252143Z 17007G12KT 33/M03 A2996 RMK A01 T03261029  RH  010%=      5-min Rain = 0
KSB1 252144Z 18016KT 33/M03 A2996 RMK A01 T03271026  RH  010%=      5-min Rain = 0
KSB1 252145Z 18014KT 33/M02 A2996 RMK A01 T03301024  RH  010%=      5-min Rain = 0
KSB1 252146Z 19010KT 33/M03 A2996 RMK A01 T03291028  RH  010%=      5-min Rain = 0
KSB1 252147Z 18015G21KT 33/M03 A2996 RMK A01 T03261025  RH  010%=      5-min Rain = 0
KSB1 252148Z 20018KT 33/M02 A2996 RMK A01 T03261023  RH  011%=      5-min Rain = 0
KSB1 252149Z 19016KT 33/M02 A2996 RMK A01 T03281019  RH  011%=      5-min Rain = 0
KSB1 252150Z 19015KT 33/M02 A2996 RMK A01 T03291021  RH  011%=      5-min Rain = 0
KSB1 252151Z 17011KT 33/M02 A2996 RMK A01 T03271023  RH  010%=      5-min Rain = 0
KSB1 252152Z 18013KT 32/M03 A2996 RMK A01 T03231025  RH  011%=      5-min Rain = 0
KSB1 252153Z 17012KT 32/M03 A2996 RMK A01 T03211025  RH  011%=      5-min Rain = 0
KSB1 252154Z 19011KT 32/M03 A2995 RMK A01 T03211025  RH  011%=      5-min Rain = 0
KSB1 252155Z 18014KT 32/M02 A2995 RMK A01 T03211022  RH  011%=      5-min Rain = 0
KSB1 252156Z 16013G19KT 32/M02 A2995 RMK A01 T03231022  RH  011%=      5-min Rain = 0
KSB1 252157Z 21024G30KT 33/M02 A2995 RMK A01 T03261020  RH  011%=      5-min Rain = 0
KSB1 252158Z 22016KT 33/M02 A2996 RMK A01 T03261019  RH  011%=      5-min Rain = 0
KSB1 252159Z 22013KT 33/M02 A2996 RMK A01 T03261019  RH  011%=      5-min Rain = 0
KSB1 252200Z 21008KT 32/M02 A2996 RMK A01 T03241019  RH  011%=      5-min Rain = 0
KSB1 252201Z 19006KT 32/M02 A2996 RMK A01 T03221021  RH  011%=      5-min Rain = 0
KSB1 252202Z 22007KT 32/M02 A2996 RMK A01 T03211021  RH  011%=      5-min Rain = 0
KSB1 252203Z 20008KT 32/M02 A2995 RMK A01 T03241015  RH  011%=      5-min Rain = 0
KSB1 252204Z 19012KT 33/M02 A2996 RMK A01 T03281016  RH  011%=      5-min Rain = 0
KSB1 252205Z 18013KT 33/M02 A2995 RMK A01 T03281020  RH  011%=      5-min Rain = 0
KSB1 252206Z 18009KT 33/M02 A2995 RMK A01 T03251023  RH  011%=      5-min Rain = 0
KSB1 252207Z 19010KT 33/M02 A2995 RMK A01 T03251020  RH  011%=      5-min Rain = 0
KSB1 252208Z 21010KT 33/M02 A2995 RMK A01 T03271017  RH  011%=      5-min Rain = 0
KSB1 252209Z 24012KT 33/M01 A2995 RMK A01 T03301014  RH  011%=      5-min Rain = 0
KSB1 252210Z 24009KT 33/M02 A2995 RMK A01 T03311016  RH  011%=      5-min Rain = 0
KSB1 252211Z 26010KT 33/M02 A2995 RMK A01 T03311016  RH  011%=      5-min Rain = 0
KSB1 252212Z 25009KT 33/M02 A2995 RMK A01 T03311017  RH  011%=      5-min Rain = 0
KSB1 252213Z 26008KT 33/M02 A2995 RMK A01 T03311018  RH  011%=      5-min Rain = 0
KSB1 252214Z 25008KT 33/M02 A2995 RMK A01 T03301016  RH  011%=      5-min Rain = 0
KSB1 252215Z 22007KT 33/M02 A2995 RMK A01 T03301015  RH  011%=      5-min Rain = 0
KSB1 252216Z 23008KT 33/M02 A2995 RMK A01 T03291016  RH  011%=      5-min Rain = 0
KSB1 252217Z 20010G17KT 33/M02 A2995 RMK A01 T03301016  RH  011%=      5-min Rain = 0
KSB1 252218Z 23008KT 33/M02 A2995 RMK A01 T03321015  RH  011%=      5-min Rain = 0
KSB1 252219Z 25007G13KT 33/M01 A2995 RMK A01 T03341013  RH  011%=      5-min Rain = 0
KSB1 252220Z 23010KT 33/M02 A2995 RMK A01 T03331016  RH  011%=      5-min Rain = 0
KSB1 252221Z 22010KT 33/M01 A2995 RMK A01 T03291013  RH  011%=      5-min Rain = 0
KSB1 252222Z 18009KT 33/M02 A2995 RMK A01 T03291016  RH  011%=      5-min Rain = 0
KSB1 252223Z 18008KT 33/M03 A2995 RMK A01 T03281025  RH  010%=      5-min Rain = 0
KSB1 252224Z 19012G17KT 33/M02 A2995 RMK A01 T03291022  RH  010%=      5-min Rain = 0
KSB1 252225Z 17012KT 33/M02 A2994 RMK A01 T03301022  RH  010%=      5-min Rain = 0
KSB1 252226Z 18012G17KT 33/M02 A2995 RMK A01 T03301022  RH  010%=      5-min Rain = 0
KSB1 252227Z 18015KT 33/M03 A2994 RMK A01 T03261027  RH  010%=      5-min Rain = 0
KSB1 252228Z 19011KT 33/M03 A2994 RMK A01 T03251027  RH  010%=      5-min Rain = 0
KSB1 252229Z 18013G19KT 32/M03 A2994 RMK A01 T03241026  RH  010%=      5-min Rain = 0
KSB1 252230Z 20019G25KT 33/M02 A2994 RMK A01 T03271021  RH  011%=      5-min Rain = 0
KSB1 252231Z 19022G28KT 33/M02 A2994 RMK A01 T03291023  RH  010%=      5-min Rain = 0
KSB1 252232Z 19024KT 33/M03 A2994 RMK A01 T03291025  RH  010%=      5-min Rain = 0
KSB1 252233Z 19024KT 33/M02 A2994 RMK A01 T03291024  RH  010%=      5-min Rain = 0
KSB1 252234Z 19019G25KT 33/M03 A2994 RMK A01 T03281025  RH  010%=      5-min Rain = 0
KSB1 252235Z 19018KT 33/M02 A2994 RMK A01 T03281024  RH  010%=      5-min Rain = 0
KSB1 252236Z 20021G26KT 33/M03 A2994 RMK A01 T03271025  RH  010%=      5-min Rain = 0
KSB1 252237Z 20019KT 33/M02 A2994 RMK A01 T03271023  RH  010%=      5-min Rain = 0
KSB1 252238Z 20018KT 33/M02 A2994 RMK A01 T03291022  RH  010%=      5-min Rain = 0
KSB1 252239Z 20015KT 33/M02 A2994 RMK A01 T03291023  RH  010%=      5-min Rain = 0
KSB1 252240Z 18011KT 32/M03 A2994 RMK A01 T03241027  RH  010%=      5-min Rain = 0
KSB1 252241Z 20011KT 32/M03 A2994 RMK A01 T03211027  RH  011%=      5-min Rain = 0
KSB1 252242Z 20013KT 32/M03 A2994 RMK A01 T03211026  RH  011%=      5-min Rain = 0
KSB1 252243Z 21012KT 32/M03 A2994 RMK A01 T03201026  RH  011%=      5-min Rain = 0
KSB1 252244Z 21010KT 32/M02 A2994 RMK A01 T03201024  RH  011%=      5-min Rain = 0
KSB1 252245Z 20009KT 32/M03 A2994 RMK A01 T03201028  RH  010%=      5-min Rain = 0
KSB1 252246Z 19008KT 32/M03 A2994 RMK A01 T03181030  RH  010%=      5-min Rain = 0
KSB1 252247Z 18008KT 32/M03 A2994 RMK A01 T03161029  RH  011%=      5-min Rain = 0
KSB1 252248Z 18006KT 32/M03 A2994 RMK A01 T03161031  RH  010%=      5-min Rain = 0
KSB1 252249Z 19006KT 32/M03 A2994 RMK A01 T03161034  RH  010%=      5-min Rain = 0
KSB1 252250Z 21008KT 31/M03 A2994 RMK A01 T03141033  RH  010%=      5-min Rain = 0
KSB1 252251Z 20009KT 32/M03 A2994 RMK A01 T03151026  RH  011%=      5-min Rain = 0
KSB1 252252Z 20009KT 32/M03 A2994 RMK A01 T03171026  RH  011%=      5-min Rain = 0
KSB1 252253Z 20016G22KT 32/M03 A2994 RMK A01 T03171026  RH  011%=      5-min Rain = 0
KSB1 252254Z 20015KT 32/M03 A2994 RMK A01 T03171025  RH  011%=      5-min Rain = 0
KSB1 252255Z 20016KT 32/M02 A2994 RMK A01 T03181024  RH  011%=      5-min Rain = 0
KSB1 252256Z 20015KT 32/M03 A2994 RMK A01 T03171026  RH  011%=      5-min Rain = 0
KSB1 252257Z 19017KT 32/M03 A2994 RMK A01 T03171026  RH  011%=      5-min Rain = 0
KSB1 252258Z 20019KT 32/M03 A2994 RMK A01 T03171027  RH  011%=      5-min Rain = 0
KSB1 252259Z 20018KT 32/M03 A2994 RMK A01 T03171026  RH  011%=      5-min Rain = 0
KSB1 252300Z 20013KT 32/M02 A2994 RMK A01 T03171024  RH  011%=      5-min Rain = 0
KSB1 252301Z 22014KT 32/M02 A2994 RMK A01 T03191022  RH  011%=      5-min Rain = 0
KSB1 252302Z 20014KT 32/M03 A2994 RMK A01 T03201025  RH  011%=      5-min Rain = 0
KSB1 252303Z 20011KT 32/M02 A2994 RMK A01 T03221024  RH  011%=      5-min Rain = 0
KSB1 252304Z 21012KT 32/M02 A2994 RMK A01 T03241024  RH  011%=      5-min Rain = 0
KSB1 252305Z 21011G16KT 33/M02 A2994 RMK A01 T03271021  RH  011%=      5-min Rain = 0
KSB1 252306Z 20011KT 33/M03 A2994 RMK A01 T03281027  RH  010%=      5-min Rain = 0
KSB1 252307Z 21013KT 33/M03 A2994 RMK A01 T03261029  RH  010%=      5-min Rain = 0
KSB1 252308Z 23013KT 32/M03 A2993 RMK A01 T03241027  RH  010%=      5-min Rain = 0
KSB1 252309Z 21012KT 32/M02 A2993 RMK A01 T03241024  RH  011%=      5-min Rain = 0
KSB1 252310Z 20011KT 33/M03 A2994 RMK A01 T03261026  RH  010%=      5-min Rain = 0
KSB1 252311Z 20009KT 33/M03 A2994 RMK A01 T03271030  RH  010%=      5-min Rain = 0
KSB1 252312Z 20009KT 33/M03 A2994 RMK A01 T03251029  RH  010%=      5-min Rain = 0
KSB1 252313Z 19009KT 33/M03 A2993 RMK A01 T03261028  RH  010%=      5-min Rain = 0
KSB1 252314Z 20013KT 33/M03 A2993 RMK A01 T03251025  RH  010%=      5-min Rain = 0
KSB1 252315Z 20013G18KT 33/M03 A2993 RMK A01 T03261025  RH  010%=      5-min Rain = 0
KSB1 252316Z 18018KT 33/M03 A2993 RMK A01 T03281026  RH  010%=      5-min Rain = 0
KSB1 252317Z 19018G24KT 33/M03 A2993 RMK A01 T03281026  RH  010%=      5-min Rain = 0
KSB1 252318Z 19013KT 33/M02 A2994 RMK A01 T03291024  RH  010%=      5-min Rain = 0
KSB1 252319Z 19014KT 33/M03 A2994 RMK A01 T03301026  RH  010%=      5-min Rain = 0
KSB1 252320Z 18011KT 33/M03 A2994 RMK A01 T03291029  RH  010%=      5-min Rain = 0
KSB1 252321Z 19011KT 33/M03 A2993 RMK A01 T03261030  RH  010%=      5-min Rain = 0
KSB1 252322Z 18012KT 32/M03 A2993 RMK A01 T03241028  RH  010%=      5-min Rain = 0
KSB1 252323Z 18016KT 33/M03 A2993 RMK A01 T03261025  RH  010%=      5-min Rain = 0
KSB1 252324Z 19016KT 33/M02 A2993 RMK A01 T03281023  RH  010%=      5-min Rain = 0
KSB1 252325Z 19013KT 33/M02 A2993 RMK A01 T03291024  RH  010%=      5-min Rain = 0
KSB1 252326Z 19011G16KT 33/M02 A2993 RMK A01 T03291024  RH  010%=      5-min Rain = 0
KSB1 252327Z 20011KT 33/M03 A2993 RMK A01 T03281026  RH  010%=      5-min Rain = 0
KSB1 252328Z 21011KT 33/M03 A2993 RMK A01 T03261026  RH  010%=      5-min Rain = 0
KSB1 252329Z 22013KT 33/M02 A2993 RMK A01 T03251024  RH  010%=      5-min Rain = 0
KSB1 252330Z 21011KT 33/M02 A2993 RMK A01 T03261024  RH  010%=      5-min Rain = 0
KSB1 252331Z 19009KT 32/M03 A2993 RMK A01 T03241029  RH  010%=      5-min Rain = 0
KSB1 252332Z 20007KT 32/M03 A2993 RMK A01 T03231028  RH  010%=      5-min Rain = 0
KSB1 252333Z 20007KT 32/M03 A2993 RMK A01 T03241026  RH  010%=      5-min Rain = 0
KSB1 252334Z 18011KT 33/M03 A2993 RMK A01 T03251025  RH  010%=      5-min Rain = 0
KSB1 252335Z 20008KT 33/M03 A2993 RMK A01 T03261026  RH  010%=      5-min Rain = 0
KSB1 252336Z 22010KT 33/M02 A2993 RMK A01 T03271024  RH  010%=      5-min Rain = 0
KSB1 252337Z 21008KT 33/M03 A2993 RMK A01 T03251027  RH  010%=      5-min Rain = 0
KSB1 252338Z 21008KT 33/M03 A2993 RMK A01 T03251026  RH  010%=      5-min Rain = 0
KSB1 252339Z 20012KT 33/M02 A2993 RMK A01 T03261024  RH  010%=      5-min Rain = 0
KSB1 252340Z 19015KT 33/M03 A2993 RMK A01 T03281026  RH  010%=      5-min Rain = 0
KSB1 252341Z 17011KT 33/M03 A2993 RMK A01 T03281032  RH  010%=      5-min Rain = 0
KSB1 252342Z 18010KT 33/M04 A2993 RMK A01 T03271038  RH  009%=      5-min Rain = 0
KSB1 252343Z 16011KT 33/M04 A2993 RMK A01 T03271036  RH  009%=      5-min Rain = 0
KSB1 252344Z 16012KT 33/M04 A2993 RMK A01 T03291035  RH  009%=      5-min Rain = 0
KSB1 252345Z 17010KT 33/M04 A2993 RMK A01 T03291036  RH  009%=      5-min Rain = 0
KSB1 252346Z 16009KT 33/M04 A2993 RMK A01 T03281035  RH  010%=      5-min Rain = 0
KSB1 252347Z 16007KT 33/M03 A2993 RMK A01 T03291034  RH  010%=      5-min Rain = 0
KSB1 252348Z 18008KT 33/M04 A2993 RMK A01 T03291037  RH  009%=      5-min Rain = 0
KSB1 252349Z 17010KT 33/M04 A2993 RMK A01 T03281036  RH  009%=      5-min Rain = 0
KSB1 252350Z 18008KT 33/M04 A2993 RMK A01 T03281036  RH  009%=      5-min Rain = 0
KSB1 252351Z 19008KT 33/M04 A2993 RMK A01 T03281036  RH  009%=      5-min Rain = 0
KSB1 252352Z 22007KT 33/M04 A2993 RMK A01 T03281035  RH  009%=      5-min Rain = 0
KSB1 252353Z 24009KT 33/M03 A2993 RMK A01 T03271026  RH  010%=      5-min Rain = 0
KSB1 252354Z 23013KT 33/M02 A2993 RMK A01 T03281021  RH  011%=      5-min Rain = 0
KSB1 252355Z 24011KT 33/M02 A2992 RMK A01 T03271021  RH  011%=      5-min Rain = 0
KSB1 252356Z 24009KT 32/M02 A2992 RMK A01 T03231022  RH  011%=      5-min Rain = 0
KSB1 252357Z 23010KT 32/M02 A2992 RMK A01 T03231020  RH  011%=      5-min Rain = 0
KSB1 252358Z 24011KT 32/M02 A2992 RMK A01 T03211022  RH  011%=      5-min Rain = 0
KSB1 252359Z 24011KT 32/M02 A2992 RMK A01 T03201021  RH  011%=      5-min Rain = 0
KSB1 260000Z 24009KT 32/M02 A2992 RMK A01 T03201021  RH  011%=      5-min Rain = 0
KSB1 260001Z 24011KT 32/M02 A2992 RMK A01 T03201021  RH  011%=      5-min Rain = 0
KSB1 260002Z 22012KT 32/M02 A2992 RMK A01 T03201021  RH  011%=      5-min Rain = 0
KSB1 260003Z 22012KT 32/M02 A2992 RMK A01 T03211021  RH  011%=      5-min Rain = 0
KSB1 260004Z 20014KT 32/M02 A2993 RMK A01 T03221017  RH  011%=      5-min Rain = 0
KSB1 260005Z 18012KT 32/M02 A2993 RMK A01 T03221020  RH  011%=      5-min Rain = 0
KSB1 260006Z 19012KT 32/M02 A2992 RMK A01 T03211022  RH  011%=      5-min Rain = 0
KSB1 260007Z 21010KT 32/M02 A2992 RMK A01 T03221019  RH  011%=      5-min Rain = 0
KSB1 260008Z 22007KT 32/M02 A2992 RMK A01 T03231020  RH  011%=      5-min Rain = 0
KSB1 260009Z 21004KT 32/M02 A2992 RMK A01 T03221022  RH  011%=      5-min Rain = 0
KSB1 260010Z 21005KT 32/M02 A2992 RMK A01 T03201023  RH  011%=      5-min Rain = 0
KSB1 260011Z 21008KT 32/M02 A2992 RMK A01 T03191020  RH  011%=      5-min Rain = 0
KSB1 260012Z 21006KT 32/M02 A2992 RMK A01 T03191021  RH  011%=      5-min Rain = 0
KSB1 260013Z 21006KT 32/M02 A2992 RMK A01 T03201019  RH  011%=      5-min Rain = 0
KSB1 260014Z 21007KT 32/M02 A2992 RMK A01 T03201019  RH  011%=      5-min Rain = 0
KSB1 260015Z 19007KT 32/M02 A2992 RMK A01 T03191022  RH  011%=      5-min Rain = 0
KSB1 260016Z 20007KT 32/M02 A2992 RMK A01 T03181021  RH  011%=      5-min Rain = 0
KSB1 260017Z 19007KT 32/M02 A2992 RMK A01 T03201019  RH  011%=      5-min Rain = 0
KSB1 260018Z 22009KT 32/M02 A2992 RMK A01 T03221015  RH  011%=      5-min Rain = 0
KSB1 260019Z 21013KT 32/M02 A2992 RMK A01 T03241016  RH  011%=      5-min Rain = 0
KSB1 260020Z 21013KT 32/M02 A2992 RMK A01 T03241017  RH  011%=      5-min Rain = 0
KSB1 260021Z 21014KT 32/M02 A2992 RMK A01 T03241017  RH  011%=      5-min Rain = 0
KSB1 260022Z 20012KT 32/M02 A2992 RMK A01 T03231019  RH  011%=      5-min Rain = 0
KSB1 260023Z 20014KT 32/M02 A2992 RMK A01 T03221019  RH  011%=      5-min Rain = 0
KSB1 260024Z 19010KT 32/M02 A2992 RMK A01 T03221020  RH  011%=      5-min Rain = 0
KSB1 260025Z 22008KT 32/M02 A2992 RMK A01 T03211021  RH  011%=      5-min Rain = 0
KSB1 260026Z 23009KT 32/M02 A2992 RMK A01 T03211019  RH  011%=      5-min Rain = 0
KSB1 260027Z 24009KT 32/M02 A2992 RMK A01 T03221018  RH  011%=      5-min Rain = 0
KSB1 260028Z 23007KT 32/M02 A2992 RMK A01 T03221019  RH  011%=      5-min Rain = 0
KSB1 260029Z 23008KT 32/M02 A2992 RMK A01 T03221018  RH  011%=      5-min Rain = 0
KSB1 260030Z 22008KT 32/M02 A2992 RMK A01 T03231017  RH  011%=      5-min Rain = 0
KSB1 260031Z 22009KT 32/M02 A2992 RMK A01 T03221018  RH  011%=      5-min Rain = 0
KSB1 260032Z 22009KT 32/M02 A2992 RMK A01 T03211017  RH  011%=      5-min Rain = 0
KSB1 260033Z 21010KT 32/M02 A2992 RMK A01 T03221017  RH  011%=      5-min Rain = 0
KSB1 260034Z 21008KT 32/M02 A2992 RMK A01 T03211019  RH  011%=      5-min Rain = 0
KSB1 260035Z 22007KT 32/M02 A2992 RMK A01 T03201018  RH  011%=      5-min Rain = 0
KSB1 260036Z 22010KT 32/M02 A2992 RMK A01 T03201015  RH  011%=      5-min Rain = 0
KSB1 260037Z 22010KT 32/M02 A2992 RMK A01 T03211015  RH  011%=      5-min Rain = 0
KSB1 260038Z 21009KT 32/M01 A2992 RMK A01 T03211014  RH  012%=      5-min Rain = 0
KSB1 260039Z 21011KT 32/M01 A2992 RMK A01 T03211014  RH  012%=      5-min Rain = 0
KSB1 260040Z 21011KT 32/M02 A2992 RMK A01 T03211015  RH  011%=      5-min Rain = 0
KSB1 260041Z 22011KT 32/M02 A2992 RMK A01 T03201015  RH  012%=      5-min Rain = 0
KSB1 260042Z 22010KT 32/M02 A2992 RMK A01 T03171016  RH  012%=      5-min Rain = 0
KSB1 260043Z 22009KT 32/M02 A2992 RMK A01 T03151017  RH  012%=      5-min Rain = 0
KSB1 260044Z 22010KT 31/M02 A2992 RMK A01 T03141016  RH  012%=      5-min Rain = 0
KSB1 260045Z 21011KT 31/M02 A2992 RMK A01 T03141015  RH  012%=      5-min Rain = 0
KSB1 260046Z 21011KT 31/M02 A2992 RMK A01 T03131015  RH  012%=      5-min Rain = 0
KSB1 260047Z 20013KT 31/M01 A2992 RMK A01 T03131014  RH  012%=      5-min Rain = 0
KSB1 260048Z 21012KT 31/M01 A2992 RMK A01 T03121013  RH  012%=      5-min Rain = 0
KSB1 260049Z 21012KT 31/M01 A2992 RMK A01 T03111012  RH  012%=      5-min Rain = 0
KSB1 260050Z 21013KT 31/M01 A2992 RMK A01 T03121011  RH  012%=      5-min Rain = 0
KSB1 260051Z 20012KT 31/M01 A2992 RMK A01 T03111012  RH  012%=      5-min Rain = 0
KSB1 260052Z 20010KT 31/M01 A2992 RMK A01 T03111011  RH  013%=      5-min Rain = 0
KSB1 260053Z 19013KT 31/M01 A2992 RMK A01 T03111011  RH  013%=      5-min Rain = 0
KSB1 260054Z 20012KT 31/M01 A2992 RMK A01 T03111011  RH  013%=      5-min Rain = 0
KSB1 260055Z 20011KT 31/M01 A2992 RMK A01 T03111010  RH  013%=      5-min Rain = 0
KSB1 260056Z 21011KT 31/M01 A2992 RMK A01 T03101011  RH  013%=      5-min Rain = 0
KSB1 260057Z 21010KT 31/M01 A2992 RMK A01 T03101010  RH  013%=      5-min Rain = 0
KSB1 260058Z 20010KT 31/M01 A2992 RMK A01 T03091011  RH  013%=      5-min Rain = 0
KSB1 260059Z 21010KT 31/M01 A2992 RMK A01 T03091010  RH  013%=      5-min Rain = 0
KSB1 260100Z 21011KT 31/M01 A2992 RMK A01 T03081010  RH  013%=      5-min Rain = 0
KSB1 260101Z 20008KT 31/M01 A2992 RMK A01 T03081010  RH  013%=      5-min Rain = 0
KSB1 260102Z 20008KT 31/M01 A2992 RMK A01 T03081010  RH  013%=      5-min Rain = 0
KSB1 260103Z 20008KT 31/M01 A2992 RMK A01 T03081010  RH  013%=      5-min Rain = 0
KSB1 260104Z 20009KT 31/M01 A2992 RMK A01 T03071009  RH  013%=      5-min Rain = 0
KSB1 260105Z 20009KT 31/M01 A2992 RMK A01 T03061009  RH  013%=      5-min Rain = 0
KSB1 260106Z 20009KT 31/M01 A2992 RMK A01 T03061008  RH  013%=      5-min Rain = 0
KSB1 260107Z 20008KT 31/M01 A2992 RMK A01 T03061007  RH  013%=      5-min Rain = 0
KSB1 260108Z 20010KT 31/M01 A2992 RMK A01 T03061007  RH  013%=      5-min Rain = 0
KSB1 260109Z 21011KT 31/M01 A2992 RMK A01 T03051008  RH  013%=      5-min Rain = 0
KSB1 260110Z 20010KT 31/M01 A2992 RMK A01 T03061007  RH  013%=      5-min Rain = 0
KSB1 260111Z 20009KT 31/M01 A2992 RMK A01 T03061007  RH  013%=      5-min Rain = 0
KSB1 260112Z 20009KT 31/M01 A2992 RMK A01 T03061007  RH  013%=      5-min Rain = 0
KSB1 260113Z 20009KT 31/M01 A2992 RMK A01 T03061007  RH  013%=      5-min Rain = 0
KSB1 260114Z 20008KT 31/M01 A2992 RMK A01 T03061006  RH  013%=      5-min Rain = 0
KSB1 260115Z 19007KT 31/M01 A2992 RMK A01 T03061006  RH  013%=      5-min Rain = 0
KSB1 260116Z 19009KT 31/M01 A2992 RMK A01 T03051006  RH  013%=      5-min Rain = 0
KSB1 260117Z 20009KT 31/M01 A2992 RMK A01 T03051006  RH  013%=      5-min Rain = 0
KSB1 260118Z 20008KT 31/M01 A2992 RMK A01 T03051007  RH  013%=      5-min Rain = 0
KSB1 260119Z 20008KT 31/M01 A2992 RMK A01 T03051008  RH  013%=      5-min Rain = 0
KSB1 260120Z 20007KT 31/M01 A2992 RMK A01 T03051007  RH  013%=      5-min Rain = 0
KSB1 260121Z 20007KT 30/M01 A2992 RMK A01 T03041007  RH  013%=      5-min Rain = 0
KSB1 260122Z 21006KT 30/M01 A2992 RMK A01 T03031008  RH  013%=      5-min Rain = 0
KSB1 260123Z 22007KT 30/M01 A2992 RMK A01 T03031007  RH  013%=      5-min Rain = 0
KSB1 260124Z 21006KT 30/M01 A2992 RMK A01 T03021007  RH  014%=      5-min Rain = 0
KSB1 260125Z 21006KT 30/M01 A2992 RMK A01 T03021006  RH  014%=      5-min Rain = 0
KSB1 260126Z 19007KT 30/M01 A2992 RMK A01 T03011006  RH  014%=      5-min Rain = 0
KSB1 260127Z 20007KT 30/M01 A2992 RMK A01 T03001006  RH  014%=      5-min Rain = 0
KSB1 260128Z 20007KT 30/M01 A2992 RMK A01 T02991006  RH  014%=      5-min Rain = 0
KSB1 260129Z 20007KT 30/M01 A2992 RMK A01 T02981006  RH  014%=      5-min Rain = 0
KSB1 260130Z 20007KT 30/M01 A2992 RMK A01 T02981005  RH  014%=      5-min Rain = 0
KSB1 260131Z 20007KT 30/M01 A2992 RMK A01 T02971005  RH  014%=      5-min Rain = 0
KSB1 260132Z 19009KT 30/M01 A2992 RMK A01 T02971005  RH  014%=      5-min Rain = 0
KSB1 260133Z 20008KT 30/M01 A2992 RMK A01 T02981005  RH  014%=      5-min Rain = 0
KSB1 260134Z 20009KT 30/M01 A2992 RMK A01 T02981005  RH  014%=      5-min Rain = 0
KSB1 260135Z 20009KT 30/M01 A2992 RMK A01 T02981005  RH  014%=      5-min Rain = 0
KSB1 260136Z 21009KT 30/M01 A2992 RMK A01 T02981005  RH  014%=      5-min Rain = 0
KSB1 260137Z 21008KT 30/M01 A2992 RMK A01 T02981005  RH  014%=      5-min Rain = 0
KSB1 260138Z 21008KT 30/M01 A2993 RMK A01 T02981005  RH  014%=      5-min Rain = 0
KSB1 260139Z 21008KT 30/M00 A2993 RMK A01 T02971004  RH  014%=      5-min Rain = 0
KSB1 260140Z 21008KT 30/M00 A2993 RMK A01 T02961004  RH  014%=      5-min Rain = 0
KSB1 260141Z 20007KT 30/M00 A2993 RMK A01 T02951004  RH  014%=      5-min Rain = 0
KSB1 260142Z 20007KT 29/M00 A2993 RMK A01 T02941004  RH  014%=      5-min Rain = 0
KSB1 260143Z 20007KT 29/M00 A2993 RMK A01 T02931004  RH  015%=      5-min Rain = 0
KSB1 260144Z 20007KT 29/M00 A2993 RMK A01 T02921003  RH  015%=      5-min Rain = 0
KSB1 260145Z 20007KT 29/M00 A2993 RMK A01 T02911003  RH  015%=      5-min Rain = 0
KSB1 260146Z 21007KT 29/M00 A2993 RMK A01 T02891003  RH  015%=      5-min Rain = 0
KSB1 260147Z 21008KT 29/M00 A2993 RMK A01 T02881002  RH  015%=      5-min Rain = 0
KSB1 260148Z 21008KT 29/M00 A2993 RMK A01 T02871002  RH  015%=      5-min Rain = 0
KSB1 260149Z 21008KT 29/M00 A2993 RMK A01 T02871002  RH  015%=      5-min Rain = 0
KSB1 260150Z 21008KT 29/M00 A2993 RMK A01 T02871002  RH  015%=      5-min Rain = 0
KSB1 260151Z 21008KT 29/M00 A2993 RMK A01 T02871002  RH  015%=      5-min Rain = 0
KSB1 260152Z 21008KT 29/M00 A2993 RMK A01 T02871002  RH  015%=      5-min Rain = 0
KSB1 260153Z 21008KT 29/M00 A2993 RMK A01 T02871001  RH  015%=      5-min Rain = 0
KSB1 260154Z 21008KT 29/M00 A2993 RMK A01 T02851002  RH  015%=      5-min Rain = 0
KSB1 260155Z 21008KT 28/M00 A2993 RMK A01 T02841001  RH  016%=      5-min Rain = 0
KSB1 260156Z 21007KT 28/M00 A2993 RMK A01 T02831002  RH  016%=      5-min Rain = 0
KSB1 260157Z 21008KT 28/M00 A2993 RMK A01 T02831001  RH  016%=      5-min Rain = 0
KSB1 260158Z 21007KT 28/M00 A2993 RMK A01 T02831001  RH  016%=      5-min Rain = 0
KSB1 260159Z 21008KT 28/M00 A2994 RMK A01 T02841001  RH  016%=      5-min Rain = 0
KSB1 260200Z 21007KT 28/M00 A2994 RMK A01 T02831001  RH  016%=      5-min Rain = 0
KSB1 260201Z 21007KT 28/M00 A2994 RMK A01 T02831001  RH  016%=      5-min Rain = 0
KSB1 260202Z 21007KT 28/M00 A2994 RMK A01 T02831001  RH  016%=      5-min Rain = 0
KSB1 260203Z 21007KT 28/M00 A2994 RMK A01 T02821001  RH  016%=      5-min Rain = 0
KSB1 260204Z 21007KT 28/M00 A2994 RMK A01 T02821001  RH  016%=      5-min Rain = 0
KSB1 260205Z 21007KT 28/00 A2994 RMK A01 T028300-0  RH  016%=      5-min Rain = 0
KSB1 260206Z 20006KT 28/00 A2994 RMK A01 T028200-0  RH  016%=      5-min Rain = 0
KSB1 260207Z 21006KT 28/00 A2994 RMK A01 T028200-0  RH  016%=      5-min Rain = 0
KSB1 260208Z 21006KT 28/00 A2994 RMK A01 T028000-0  RH  016%=      5-min Rain = 0
KSB1 260209Z 21007KT 28/00 A2994 RMK A01 T027900-0  RH  016%=      5-min Rain = 0
KSB1 260210Z 22007KT 28/00 A2994 RMK A01 T027900-0  RH  016%=      5-min Rain = 0
KSB1 260211Z 21007KT 28/00 A2994 RMK A01 T027900-0  RH  016%=      5-min Rain = 0
KSB1 260212Z 21007KT 28/00 A2994 RMK A01 T027900-0  RH  016%=      5-min Rain = 0
KSB1 260213Z 21007KT 28/00 A2994 RMK A01 T02790001  RH  016%=      5-min Rain = 0
KSB1 260214Z 21007KT 28/00 A2994 RMK A01 T02780001  RH  016%=      5-min Rain = 0
KSB1 260215Z 21006KT 28/00 A2994 RMK A01 T02780001  RH  017%=      5-min Rain = 0
KSB1 260216Z 22007KT 28/00 A2994 RMK A01 T02770001  RH  017%=      5-min Rain = 0
KSB1 260217Z 22007KT 28/00 A2994 RMK A01 T02770001  RH  017%=      5-min Rain = 0
KSB1 260218Z 22007KT 28/00 A2994 RMK A01 T02770001  RH  017%=      5-min Rain = 0
KSB1 260219Z 22007KT 28/00 A2994 RMK A01 T02770002  RH  017%=      5-min Rain = 0
KSB1 260220Z 22007KT 28/00 A2994 RMK A01 T02770001  RH  017%=      5-min Rain = 0
KSB1 260221Z 22006KT 28/00 A2994 RMK A01 T02780001  RH  016%=      5-min Rain = 0
KSB1 260222Z 22007KT 28/00 A2994 RMK A01 T02790001  RH  016%=      5-min Rain = 0
KSB1 260223Z 22007KT 28/00 A2994 RMK A01 T02790002  RH  017%=      5-min Rain = 0
KSB1 260224Z 22006KT 28/00 A2994 RMK A01 T02790003  RH  017%=      5-min Rain = 0
KSB1 260225Z 22005KT 28/00 A2994 RMK A01 T02770003  RH  017%=      5-min Rain = 0
KSB1 260226Z 21004KT 28/00 A2994 RMK A01 T02760003  RH  017%=      5-min Rain = 0
KSB1 260227Z 21004KT 27/00 A2994 RMK A01 T02740002  RH  017%=      5-min Rain = 0
KSB1 260228Z 21003KT 27/00 A2994 RMK A01 T02740001  RH  017%=      5-min Rain = 0
KSB1 260229Z 21004KT 27/00 A2994 RMK A01 T02740001  RH  017%=      5-min Rain = 0
KSB1 260230Z 22004KT 28/00 A2994 RMK A01 T02750002  RH  017%=      5-min Rain = 0
KSB1 260231Z 21004KT 28/00 A2994 RMK A01 T02770002  RH  017%=      5-min Rain = 0
KSB1 260232Z 21004KT 28/00 A2994 RMK A01 T02780002  RH  017%=      5-min Rain = 0
KSB1 260233Z 21004KT 28/00 A2994 RMK A01 T02800002  RH  016%=      5-min Rain = 0
KSB1 260234Z 22004KT 28/00 A2994 RMK A01 T02800002  RH  016%=      5-min Rain = 0
KSB1 260235Z 22004KT 28/00 A2994 RMK A01 T02800002  RH  016%=      5-min Rain = 0
KSB1 260236Z 22004KT 28/00 A2994 RMK A01 T02810002  RH  016%=      5-min Rain = 0
KSB1 260237Z 22005KT 28/00 A2994 RMK A01 T02810002  RH  016%=      5-min Rain = 0
KSB1 260238Z 22005KT 28/00 A2994 RMK A01 T02810001  RH  016%=      5-min Rain = 0
KSB1 260239Z 22004KT 28/00 A2994 RMK A01 T02810002  RH  016%=      5-min Rain = 0
KSB1 260240Z 22004KT 28/00 A2994 RMK A01 T02810002  RH  016%=      5-min Rain = 0
KSB1 260241Z 22004KT 28/00 A2994 RMK A01 T02820002  RH  016%=      5-min Rain = 0
KSB1 260242Z 22004KT 28/00 A2994 RMK A01 T02820002  RH  016%=      5-min Rain = 0
KSB1 260243Z 22004KT 28/00 A2994 RMK A01 T02820002  RH  016%=      5-min Rain = 0
KSB1 260244Z 23004KT 28/00 A2994 RMK A01 T02820002  RH  016%=      5-min Rain = 0
KSB1 260245Z 24004KT 28/00 A2994 RMK A01 T02820003  RH  016%=      5-min Rain = 0
KSB1 260246Z 25005KT 28/00 A2994 RMK A01 T02810003  RH  016%=      5-min Rain = 0
KSB1 260247Z 26005KT 28/00 A2994 RMK A01 T02790003  RH  017%=      5-min Rain = 0
KSB1 260248Z 26005KT 28/00 A2994 RMK A01 T02790003  RH  017%=      5-min Rain = 0
KSB1 260249Z 26005KT 28/00 A2994 RMK A01 T02780002  RH  017%=      5-min Rain = 0
KSB1 260250Z 26005KT 28/00 A2994 RMK A01 T02790002  RH  016%=      5-min Rain = 0
KSB1 260251Z 26004KT 28/00 A2994 RMK A01 T02800002  RH  016%=      5-min Rain = 0
KSB1 260252Z 26004KT 28/00 A2994 RMK A01 T02810001  RH  016%=      5-min Rain = 0
KSB1 260253Z 25004KT 28/00 A2994 RMK A01 T02820001  RH  016%=      5-min Rain = 0
KSB1 260254Z 26004KT 28/00 A2994 RMK A01 T02840001  RH  016%=      5-min Rain = 0
KSB1 260255Z 26004KT 29/00 A2994 RMK A01 T02850001  RH  016%=      5-min Rain = 0
KSB1 260256Z 27004KT 29/00 A2994 RMK A01 T02860001  RH  016%=      5-min Rain = 0
KSB1 260257Z 26004KT 29/00 A2994 RMK A01 T02870001  RH  016%=      5-min Rain = 0
KSB1 260258Z 27004KT 29/00 A2994 RMK A01 T02860002  RH  016%=      5-min Rain = 0
KSB1 260259Z 27004KT 29/00 A2994 RMK A01 T02860001  RH  016%=      5-min Rain = 0
KSB1 260300Z 27004KT 29/00 A2994 RMK A01 T02860001  RH  016%=      5-min Rain = 0
KSB1 260301Z 26006KT 29/00 A2994 RMK A01 T02870001  RH  016%=      5-min Rain = 0
KSB1 260302Z 25008KT 29/00 A2994 RMK A01 T02860002  RH  016%=      5-min Rain = 0
KSB1 260303Z 25008KT 28/00 A2995 RMK A01 T02810001  RH  016%=      5-min Rain = 0
KSB1 260304Z 20010KT 28/00 A2995 RMK A01 T02790001  RH  016%=      5-min Rain = 0
KSB1 260305Z 19010KT 28/00 A2995 RMK A01 T02820003  RH  016%=      5-min Rain = 0
KSB1 260306Z 25007KT 29/00 A2995 RMK A01 T02850003  RH  016%=      5-min Rain = 0
KSB1 260307Z 24006KT 28/00 A2995 RMK A01 T02800002  RH  016%=      5-min Rain = 0
KSB1 260308Z 24005KT 28/00 A2995 RMK A01 T02760002  RH  017%=      5-min Rain = 0
KSB1 260309Z 25005KT 27/00 A2995 RMK A01 T02730002  RH  017%=      5-min Rain = 0
KSB1 260310Z 25005KT 27/00 A2995 RMK A01 T02720002  RH  017%=      5-min Rain = 0
KSB1 260311Z 24006KT 27/00 A2995 RMK A01 T02710003  RH  017%=      5-min Rain = 0
KSB1 260312Z 25006KT 27/00 A2995 RMK A01 T02700003  RH  018%=      5-min Rain = 0
KSB1 260313Z 26005KT 27/00 A2995 RMK A01 T02700004  RH  018%=      5-min Rain = 0
KSB1 260314Z 28005KT 27/00 A2995 RMK A01 T02710003  RH  017%=      5-min Rain = 0
KSB1 260315Z 28005KT 27/00 A2995 RMK A01 T02730003  RH  017%=      5-min Rain = 0
KSB1 260316Z 27005KT 28/00 A2995 RMK A01 T02750003  RH  017%=      5-min Rain = 0
KSB1 260317Z 27005KT 28/00 A2995 RMK A01 T02760003  RH  017%=      5-min Rain = 0
KSB1 260318Z 27005KT 28/00 A2995 RMK A01 T02750004  RH  017%=      5-min Rain = 0
KSB1 260319Z 27004KT 27/00 A2995 RMK A01 T02740004  RH  017%=      5-min Rain = 0
KSB1 260320Z 27006KT 27/00 A2995 RMK A01 T02740004  RH  017%=      5-min Rain = 0
KSB1 260321Z 27005KT 27/00 A2995 RMK A01 T02740003  RH  017%=      5-min Rain = 0
KSB1 260322Z 26005KT 27/00 A2995 RMK A01 T02740004  RH  017%=      5-min Rain = 0
KSB1 260323Z 26006KT 27/00 A2995 RMK A01 T02740004  RH  017%=      5-min Rain = 0
KSB1 260324Z 26005KT 27/00 A2995 RMK A01 T02740004  RH  017%=      5-min Rain = 0
KSB1 260325Z 28005KT 27/01 A2995 RMK A01 T02740005  RH  017%=      5-min Rain = 0
KSB1 260326Z 28005KT 27/01 A2995 RMK A01 T02740005  RH  017%=      5-min Rain = 0
KSB1 260327Z 29004KT 27/01 A2995 RMK A01 T02740005  RH  017%=      5-min Rain = 0
KSB1 260328Z 30004KT 27/01 A2995 RMK A01 T02730005  RH  017%=      5-min Rain = 0
KSB1 260329Z 30004KT 27/01 A2995 RMK A01 T02730006  RH  018%=      5-min Rain = 0
KSB1 260330Z 30005KT 27/01 A2995 RMK A01 T02730005  RH  017%=      5-min Rain = 0
KSB1 260331Z 30005KT 28/01 A2995 RMK A01 T02750005  RH  017%=      5-min Rain = 0
KSB1 260332Z 30004KT 28/01 A2995 RMK A01 T02770005  RH  017%=      5-min Rain = 0
KSB1 260333Z 30004KT 28/01 A2995 RMK A01 T02790005  RH  017%=      5-min Rain = 0
KSB1 260334Z 30004KT 28/01 A2995 RMK A01 T02810005  RH  017%=      5-min Rain = 0
KSB1 260335Z 31004KT 28/01 A2995 RMK A01 T02830005  RH  016%=      5-min Rain = 0
KSB1 260336Z 32005KT 28/01 A2995 RMK A01 T02840005  RH  016%=      5-min Rain = 0
KSB1 260337Z 33005KT 29/01 A2995 RMK A01 T02850005  RH  016%=      5-min Rain = 0
KSB1 260338Z 33006KT 29/01 A2995 RMK A01 T02860005  RH  016%=      5-min Rain = 0
KSB1 260339Z 32006KT 29/01 A2995 RMK A01 T02860007  RH  016%=      5-min Rain = 0
KSB1 260340Z 32007KT 28/01 A2995 RMK A01 T02830007  RH  017%=      5-min Rain = 0
KSB1 260341Z 32008KT 28/01 A2995 RMK A01 T02790007  RH  017%=      5-min Rain = 0
KSB1 260342Z 32009KT 28/01 A2995 RMK A01 T02760007  RH  017%=      5-min Rain = 0
KSB1 260343Z 32009KT 28/01 A2995 RMK A01 T02760006  RH  017%=      5-min Rain = 0
KSB1 260344Z 32008KT 28/01 A2995 RMK A01 T02760006  RH  017%=      5-min Rain = 0
KSB1 260345Z 32008KT 28/01 A2995 RMK A01 T02760006  RH  017%=      5-min Rain = 0
KSB1 260346Z 32008KT 28/01 A2995 RMK A01 T02760006  RH  017%=      5-min Rain = 0
KSB1 260347Z 31008KT 28/01 A2995 RMK A01 T02770006  RH  017%=      5-min Rain = 0
KSB1 260348Z 31009KT 28/01 A2995 RMK A01 T02770007  RH  017%=      5-min Rain = 0
KSB1 260349Z 30011KT 28/01 A2995 RMK A01 T02780007  RH  017%=      5-min Rain = 0
KSB1 260350Z 30010KT 28/01 A2995 RMK A01 T02810007  RH  017%=      5-min Rain = 0
KSB1 260351Z 30010KT 28/01 A2995 RMK A01 T02830007  RH  017%=      5-min Rain = 0
KSB1 260352Z 30010KT 28/01 A2995 RMK A01 T02840006  RH  017%=      5-min Rain = 0
KSB1 260353Z 30009KT 29/01 A2995 RMK A01 T02850007  RH  016%=      5-min Rain = 0
KSB1 260354Z 30008KT 29/01 A2995 RMK A01 T02860007  RH  016%=      5-min Rain = 0
KSB1 260355Z 30009KT 29/01 A2995 RMK A01 T02870007  RH  016%=      5-min Rain = 0
KSB1 260356Z 31010KT 29/01 A2995 RMK A01 T02870007  RH  016%=      5-min Rain = 0
KSB1 260357Z 31009KT 29/01 A2995 RMK A01 T02860007  RH  016%=      5-min Rain = 0
KSB1 260358Z 31009KT 29/01 A2995 RMK A01 T02860008  RH  016%=      5-min Rain = 0
KSB1 260359Z 30007KT 29/01 A2995 RMK A01 T02860008  RH  017%=      5-min Rain = 0
KSB1 260400Z 31007KT 28/01 A2995 RMK A01 T02840008  RH  017%=      5-min Rain = 0
KSB1 260401Z 31009KT 28/01 A2995 RMK A01 T02830008  RH  017%=      5-min Rain = 0
KSB1 260402Z 31008KT 28/01 A2995 RMK A01 T02830008  RH  017%=      5-min Rain = 0
KSB1 260403Z 31009KT 28/01 A2995 RMK A01 T02830008  RH  017%=      5-min Rain = 0
KSB1 260404Z 31009KT 28/01 A2995 RMK A01 T02840008  RH  017%=      5-min Rain = 0
KSB1 260405Z 31009KT 29/01 A2995 RMK A01 T02860008  RH  017%=      5-min Rain = 0
KSB1 260406Z 31009KT 29/01 A2995 RMK A01 T02860008  RH  016%=      5-min Rain = 0
KSB1 260407Z 30008KT 29/01 A2996 RMK A01 T02870008  RH  016%=      5-min Rain = 0
KSB1 260408Z 31008KT 29/01 A2996 RMK A01 T02880007  RH  016%=      5-min Rain = 0
KSB1 260409Z 30006KT 29/01 A2996 RMK A01 T02880007  RH  016%=      5-min Rain = 0
KSB1 260410Z 31006KT 29/01 A2996 RMK A01 T02890008  RH  016%=      5-min Rain = 0
KSB1 260411Z 29006KT 29/01 A2996 RMK A01 T02880008  RH  016%=      5-min Rain = 0
KSB1 260412Z 30005KT 29/01 A2997 RMK A01 T02880007  RH  016%=      5-min Rain = 0
KSB1 260413Z 34002KT 29/01 A2997 RMK A01 T02890007  RH  016%=      5-min Rain = 0
KSB1 260414Z 11005KT 29/01 A2997 RMK A01 T02860008  RH  017%=      5-min Rain = 0
KSB1 260415Z 12004KT 28/01 A2997 RMK A01 T02760007  RH  017%=      5-min Rain = 0
KSB1 260416Z 14005KT 27/01 A2997 RMK A01 T02690007  RH  018%=      5-min Rain = 0
KSB1 260417Z 15006KT 26/01 A2998 RMK A01 T02630007  RH  019%=      5-min Rain = 0
KSB1 260418Z 17007KT 26/01 A2998 RMK A01 T02590009  RH  020%=      5-min Rain = 0
KSB1 260419Z 17008KT 26/01 A2998 RMK A01 T02560010  RH  020%=      5-min Rain = 0
KSB1 260420Z 18007KT 26/01 A2998 RMK A01 T02550010  RH  020%=      5-min Rain = 0
KSB1 260421Z 19006KT 25/01 A2998 RMK A01 T02540010  RH  020%=      5-min Rain = 0
KSB1 260422Z 20007KT 25/01 A2999 RMK A01 T02530011  RH  020%=      5-min Rain = 0
KSB1 260423Z 20012G17KT 25/02 A2999 RMK A01 T02520015  RH  021%=      5-min Rain = 0
KSB1 260424Z 18019G26KT 25/05 A2999 RMK A01 T02510046  RH  027%=      5-min Rain = 0
KSB1 260425Z 15013G21KT 26/04 A2998 RMK A01 T02600042  RH  025%=      5-min Rain = 0
KSB1 260426Z 18007KT 27/03 A2999 RMK A01 T02720034  RH  022%=      5-min Rain = 0
KSB1 260427Z 18003KT 28/05 A2999 RMK A01 T02760046  RH  023%=      5-min Rain = 0
KSB1 260428Z 12002KT 28/05 A2999 RMK A01 T02760050  RH  024%=      5-min Rain = 0
KSB1 260429Z 07004KT 28/05 A2998 RMK A01 T02750051  RH  024%=      5-min Rain = 0
KSB1 260430Z 09006KT 28/06 A2998 RMK A01 T02750060  RH  025%=      5-min Rain = 0
KSB1 260431Z 09006KT 27/06 A2998 RMK A01 T02740057  RH  025%=      5-min Rain = 0
KSB1 260432Z 07008KT 27/06 A2997 RMK A01 T02740055  RH  025%=      5-min Rain = 0
KSB1 260433Z 06009KT 27/04 A2997 RMK A01 T02740043  RH  023%=      5-min Rain = 0
KSB1 260434Z 04007KT 28/04 A2997 RMK A01 T02760040  RH  022%=      5-min Rain = 0
KSB1 260435Z 02005KT 28/04 A2997 RMK A01 T02770036  RH  021%=      5-min Rain = 0
KSB1 260436Z 36004KT 28/05 A2997 RMK A01 T02780046  RH  023%=      5-min Rain = 0
KSB1 260437Z 34002KT 28/04 A2997 RMK A01 T02780035  RH  021%=      5-min Rain = 0
KSB1 260438Z 02002KT 28/03 A2997 RMK A01 T02780029  RH  020%=      5-min Rain = 0
KSB1 260439Z 02004KT 28/03 A2997 RMK A01 T02800025  RH  019%=      5-min Rain = 0
KSB1 260440Z 04002KT 28/02 A2997 RMK A01 T02820023  RH  019%=      5-min Rain = 0
KSB1 260441Z 36003KT 28/03 A2997 RMK A01 T02830027  RH  019%=      5-min Rain = 0
KSB1 260442Z 00005KT 28/03 A2997 RMK A01 T02830032  RH  020%=      5-min Rain = 0
KSB1 260443Z 01005KT 28/03 A2997 RMK A01 T02830033  RH  020%=      5-min Rain = 0
KSB1 260444Z 00005KT 28/03 A2997 RMK A01 T02820027  RH  019%=      5-min Rain = 0
KSB1 260445Z 36008KT 28/03 A2997 RMK A01 T02830029  RH  020%=      5-min Rain = 0
KSB1 260446Z 35006KT 28/03 A2997 RMK A01 T02830027  RH  019%=      5-min Rain = 0
KSB1 260447Z 35004KT 28/02 A2997 RMK A01 T02820022  RH  019%=      5-min Rain = 0
KSB1 260448Z 35003KT 28/02 A2997 RMK A01 T02820023  RH  019%=      5-min Rain = 0
KSB1 260449Z 29002KT 28/02 A2998 RMK A01 T02820020  RH  018%=      5-min Rain = 0
KSB1 260450Z 25005KT 28/03 A2998 RMK A01 T02830025  RH  019%=      5-min Rain = 0
KSB1 260451Z 26006KT 28/03 A2998 RMK A01 T02820027  RH  019%=      5-min Rain = 0
KSB1 260452Z 25006KT 28/03 A2998 RMK A01 T02800026  RH  020%=      5-min Rain = 0
KSB1 260453Z 22004KT 28/02 A2998 RMK A01 T02800021  RH  019%=      5-min Rain = 0
KSB1 260454Z 20004KT 28/02 A2998 RMK A01 T02810023  RH  019%=      5-min Rain = 0
KSB1 260455Z 19003KT 28/02 A2998 RMK A01 T02820016  RH  018%=      5-min Rain = 0
KSB1 260456Z 19002KT 28/01 A2998 RMK A01 T02840013  RH  017%=      5-min Rain = 0
KSB1 260457Z 21002KT 29/03 A2998 RMK A01 T02870025  RH  019%=      5-min Rain = 0
KSB1 260458Z 21004KT 29/03 A2998 RMK A01 T02850026  RH  019%=      5-min Rain = 0
KSB1 260459Z 17004KT 28/03 A2998 RMK A01 T02830025  RH  019%=      5-min Rain = 0

Page generated in 0.0321 seconds.